<?xml version="1.0" encoding="UTF-8"?>
<gpx xmlns="http://www.topografix.com/GPX/1/1" version="1.1" xmlns:xsi="http://www.w3.org/2001/XMLSchema-instance" xsi:schemaLocation="http://www.topografix.com/GPX/1/1 http://www.topografix.com/GPX/1/1/gpx.xsd" creator="MotionXGPSFull 24.4 Build 5112 R64">
<trk>
<name><![CDATA[後山 大東電報局]]></name>
<desc><![CDATA[Nov 18, 2017  4:23 pm]]></desc>
<trkseg>
<trkpt lat="22.2670337" lon="114.2503469">
<ele>5.109</ele>
<time>2017-11-18T08:23:58.261Z</time>
</trkpt>
<trkpt lat="22.2670337" lon="114.2503469">
<ele>5.109</ele>
<time>2017-11-18T08:23:58.361Z</time>
</trkpt>
<trkpt lat="22.2671171" lon="114.2504434">
<ele>5.105</ele>
<time>2017-11-18T08:24:08.599Z</time>
</trkpt>
<trkpt lat="22.2672055" lon="114.2505007">
<ele>5.844</ele>
<time>2017-11-18T08:24:13.471Z</time>
</trkpt>
<trkpt lat="22.2672472" lon="114.2506424">
<ele>9.708</ele>
<time>2017-11-18T08:24:21.024Z</time>
</trkpt>
<trkpt lat="22.2671628" lon="114.2506951">
<ele>10.214</ele>
<time>2017-11-18T08:24:28.520Z</time>
</trkpt>
<trkpt lat="22.2671001" lon="114.2507694">
<ele>9.188</ele>
<time>2017-11-18T08:24:35.892Z</time>
</trkpt>
<trkpt lat="22.2670100" lon="114.2507576">
<ele>8.742</ele>
<time>2017-11-18T08:24:43.094Z</time>
</trkpt>
<trkpt lat="22.2669853" lon="114.2508550">
<ele>8.334</ele>
<time>2017-11-18T08:24:48.551Z</time>
</trkpt>
<trkpt lat="22.2669266" lon="114.2509577">
<ele>8.185</ele>
<time>2017-11-18T08:24:53.214Z</time>
</trkpt>
<trkpt lat="22.2668587" lon="114.2510565">
<ele>8.157</ele>
<time>2017-11-18T08:24:57.221Z</time>
</trkpt>
<trkpt lat="22.2667903" lon="114.2511204">
<ele>7.910</ele>
<time>2017-11-18T08:25:00.141Z</time>
</trkpt>
<trkpt lat="22.2667350" lon="114.2512006">
<ele>7.447</ele>
<time>2017-11-18T08:25:03.018Z</time>
</trkpt>
<trkpt lat="22.2666544" lon="114.2512943">
<ele>6.981</ele>
<time>2017-11-18T08:25:06.884Z</time>
</trkpt>
<trkpt lat="22.2665637" lon="114.2513536">
<ele>6.674</ele>
<time>2017-11-18T08:25:10.704Z</time>
</trkpt>
<trkpt lat="22.2664913" lon="114.2514147">
<ele>6.429</ele>
<time>2017-11-18T08:25:14.347Z</time>
</trkpt>
<trkpt lat="22.2664309" lon="114.2515053">
<ele>6.105</ele>
<time>2017-11-18T08:25:18.587Z</time>
</trkpt>
<trkpt lat="22.2663603" lon="114.2515997">
<ele>5.806</ele>
<time>2017-11-18T08:25:23.067Z</time>
</trkpt>
<trkpt lat="22.2662790" lon="114.2516837">
<ele>5.669</ele>
<time>2017-11-18T08:25:27.112Z</time>
</trkpt>
<trkpt lat="22.2662372" lon="114.2517816">
<ele>5.591</ele>
<time>2017-11-18T08:25:30.669Z</time>
</trkpt>
<trkpt lat="22.2661953" lon="114.2518703">
<ele>5.394</ele>
<time>2017-11-18T08:25:34.091Z</time>
</trkpt>
<trkpt lat="22.2661280" lon="114.2519524">
<ele>5.131</ele>
<time>2017-11-18T08:25:38.234Z</time>
</trkpt>
<trkpt lat="22.2660391" lon="114.2519954">
<ele>5.001</ele>
<time>2017-11-18T08:25:42.516Z</time>
</trkpt>
<trkpt lat="22.2659451" lon="114.2520288">
<ele>5.098</ele>
<time>2017-11-18T08:25:46.890Z</time>
</trkpt>
<trkpt lat="22.2658290" lon="114.2520129">
<ele>5.388</ele>
<time>2017-11-18T08:25:51.881Z</time>
</trkpt>
<trkpt lat="22.2657414" lon="114.2519691">
<ele>6.115</ele>
<time>2017-11-18T08:25:55.926Z</time>
</trkpt>
<trkpt lat="22.2656488" lon="114.2519905">
<ele>7.323</ele>
<time>2017-11-18T08:25:59.577Z</time>
</trkpt>
<trkpt lat="22.2655722" lon="114.2520620">
<ele>8.432</ele>
<time>2017-11-18T08:26:03.191Z</time>
</trkpt>
<trkpt lat="22.2655111" lon="114.2521514">
<ele>9.065</ele>
<time>2017-11-18T08:26:06.736Z</time>
</trkpt>
<trkpt lat="22.2654350" lon="114.2522383">
<ele>9.415</ele>
<time>2017-11-18T08:26:10.709Z</time>
</trkpt>
<trkpt lat="22.2653650" lon="114.2523354">
<ele>9.537</ele>
<time>2017-11-18T08:26:15.384Z</time>
</trkpt>
<trkpt lat="22.2652547" lon="114.2523622">
<ele>9.435</ele>
<time>2017-11-18T08:26:20.739Z</time>
</trkpt>
<trkpt lat="22.2651663" lon="114.2523250">
<ele>9.201</ele>
<time>2017-11-18T08:26:26.541Z</time>
</trkpt>
<trkpt lat="22.2650763" lon="114.2522935">
<ele>9.266</ele>
<time>2017-11-18T08:26:33.803Z</time>
</trkpt>
<trkpt lat="22.2650081" lon="114.2522258">
<ele>9.444</ele>
<time>2017-11-18T08:26:43.193Z</time>
</trkpt>
<trkpt lat="22.2649271" lon="114.2522719">
<ele>9.767</ele>
<time>2017-11-18T08:26:52.482Z</time>
</trkpt>
<trkpt lat="22.2648621" lon="114.2523571">
<ele>10.467</ele>
<time>2017-11-18T08:27:02.947Z</time>
</trkpt>
<trkpt lat="22.2648077" lon="114.2524371">
<ele>11.542</ele>
<time>2017-11-18T08:27:11.780Z</time>
</trkpt>
<trkpt lat="22.2648187" lon="114.2525401">
<ele>12.469</ele>
<time>2017-11-18T08:27:21.893Z</time>
</trkpt>
<trkpt lat="22.2648296" lon="114.2526391">
<ele>12.996</ele>
<time>2017-11-18T08:27:36.751Z</time>
</trkpt>
<trkpt lat="22.2647919" lon="114.2527273">
<ele>13.718</ele>
<time>2017-11-18T08:27:52.444Z</time>
</trkpt>
<trkpt lat="22.2647199" lon="114.2527884">
<ele>15.102</ele>
<time>2017-11-18T08:28:04.635Z</time>
</trkpt>
<trkpt lat="22.2646970" lon="114.2528875">
<ele>17.046</ele>
<time>2017-11-18T08:28:15.748Z</time>
</trkpt>
<trkpt lat="22.2646372" lon="114.2529714">
<ele>19.300</ele>
<time>2017-11-18T08:28:27.273Z</time>
</trkpt>
<trkpt lat="22.2645507" lon="114.2530017">
<ele>21.727</ele>
<time>2017-11-18T08:28:37.302Z</time>
</trkpt>
<trkpt lat="22.2644660" lon="114.2530626">
<ele>24.193</ele>
<time>2017-11-18T08:28:49.417Z</time>
</trkpt>
<trkpt lat="22.2643906" lon="114.2531292">
<ele>26.786</ele>
<time>2017-11-18T08:29:01.167Z</time>
</trkpt>
<trkpt lat="22.2643113" lon="114.2531776">
<ele>29.317</ele>
<time>2017-11-18T08:29:11.596Z</time>
</trkpt>
<trkpt lat="22.2642698" lon="114.2532703">
<ele>31.258</ele>
<time>2017-11-18T08:29:22.697Z</time>
</trkpt>
<trkpt lat="22.2642414" lon="114.2533676">
<ele>32.809</ele>
<time>2017-11-18T08:29:32.542Z</time>
</trkpt>
<trkpt lat="22.2642575" lon="114.2534705">
<ele>34.527</ele>
<time>2017-11-18T08:29:41.766Z</time>
</trkpt>
<trkpt lat="22.2642221" lon="114.2535609">
<ele>36.200</ele>
<time>2017-11-18T08:29:50.606Z</time>
</trkpt>
<trkpt lat="22.2641550" lon="114.2536397">
<ele>37.375</ele>
<time>2017-11-18T08:30:00.350Z</time>
</trkpt>
<trkpt lat="22.2641474" lon="114.2537521">
<ele>38.056</ele>
<time>2017-11-18T08:30:13.454Z</time>
</trkpt>
<trkpt lat="22.2641108" lon="114.2538484">
<ele>38.493</ele>
<time>2017-11-18T08:30:26.665Z</time>
</trkpt>
<trkpt lat="22.2640820" lon="114.2539515">
<ele>38.836</ele>
<time>2017-11-18T08:30:37.255Z</time>
</trkpt>
<trkpt lat="22.2640641" lon="114.2540515">
<ele>39.524</ele>
<time>2017-11-18T08:30:45.036Z</time>
</trkpt>
<trkpt lat="22.2640641" lon="114.2540515">
<ele>40.846</ele>
<time>2017-11-18T08:30:49.036Z</time>
</trkpt>
<trkpt lat="22.2640641" lon="114.2540515">
<ele>41.879</ele>
<time>2017-11-18T08:32:38.132Z</time>
</trkpt>
<trkpt lat="22.2639705" lon="114.2540619">
<ele>41.271</ele>
<time>2017-11-18T08:33:06.034Z</time>
</trkpt>
<trkpt lat="22.2639705" lon="114.2540619">
<ele>40.918</ele>
<time>2017-11-18T08:33:17.033Z</time>
</trkpt>
<trkpt lat="22.2639705" lon="114.2540619">
<ele>40.921</ele>
<time>2017-11-18T08:33:21.820Z</time>
</trkpt>
<trkpt lat="22.2638696" lon="114.2539879">
<ele>41.084</ele>
<time>2017-11-18T08:33:41.771Z</time>
</trkpt>
<trkpt lat="22.2637907" lon="114.2540370">
<ele>42.776</ele>
<time>2017-11-18T08:33:55.633Z</time>
</trkpt>
<trkpt lat="22.2637124" lon="114.2539821">
<ele>47.311</ele>
<time>2017-11-18T08:34:23.658Z</time>
</trkpt>
<trkpt lat="22.2637188" lon="114.2540824">
<ele>52.817</ele>
<time>2017-11-18T08:34:47.006Z</time>
</trkpt>
<trkpt lat="22.2636492" lon="114.2540180">
<ele>57.732</ele>
<time>2017-11-18T08:35:05.305Z</time>
</trkpt>
<trkpt lat="22.2635822" lon="114.2540988">
<ele>62.755</ele>
<time>2017-11-18T08:35:21.833Z</time>
</trkpt>
<trkpt lat="22.2634892" lon="114.2541214">
<ele>67.248</ele>
<time>2017-11-18T08:35:37.389Z</time>
</trkpt>
<trkpt lat="22.2635011" lon="114.2542230">
<ele>70.136</ele>
<time>2017-11-18T08:35:56.731Z</time>
</trkpt>
<trkpt lat="22.2634722" lon="114.2543150">
<ele>71.690</ele>
<time>2017-11-18T08:36:12.030Z</time>
</trkpt>
<trkpt lat="22.2634722" lon="114.2543150">
<ele>72.341</ele>
<time>2017-11-18T08:36:13.030Z</time>
</trkpt>
<trkpt lat="22.2634722" lon="114.2543150">
<ele>72.412</ele>
<time>2017-11-18T08:36:14.621Z</time>
</trkpt>
<trkpt lat="22.2634817" lon="114.2541796">
<ele>72.326</ele>
<time>2017-11-18T08:36:36.311Z</time>
</trkpt>
<trkpt lat="22.2633870" lon="114.2541868">
<ele>72.282</ele>
<time>2017-11-18T08:36:48.029Z</time>
</trkpt>
<trkpt lat="22.2633870" lon="114.2541868">
<ele>72.304</ele>
<time>2017-11-18T08:36:51.029Z</time>
</trkpt>
<trkpt lat="22.2633870" lon="114.2541868">
<ele>72.328</ele>
<time>2017-11-18T08:36:53.979Z</time>
</trkpt>
<trkpt lat="22.2633870" lon="114.2541868">
<ele>72.249</ele>
<time>2017-11-18T08:37:04.029Z</time>
</trkpt>
<trkpt lat="22.2633870" lon="114.2541868">
<ele>72.219</ele>
<time>2017-11-18T08:37:04.129Z</time>
</trkpt>
<trkpt lat="22.2633870" lon="114.2541868">
<ele>72.185</ele>
<time>2017-11-18T08:37:07.029Z</time>
</trkpt>
<trkpt lat="22.2633870" lon="114.2541868">
<ele>72.164</ele>
<time>2017-11-18T08:37:21.028Z</time>
</trkpt>
<trkpt lat="22.2633870" lon="114.2541868">
<ele>72.138</ele>
<time>2017-11-18T08:37:27.176Z</time>
</trkpt>
<trkpt lat="22.2633203" lon="114.2542628">
<ele>72.114</ele>
<time>2017-11-18T08:37:35.028Z</time>
</trkpt>
<trkpt lat="22.2633203" lon="114.2542628">
<ele>72.098</ele>
<time>2017-11-18T08:37:52.034Z</time>
</trkpt>
<trkpt lat="22.2633203" lon="114.2542628">
<ele>72.080</ele>
<time>2017-11-18T08:37:59.002Z</time>
</trkpt>
<trkpt lat="22.2633203" lon="114.2542628">
<ele>72.028</ele>
<time>2017-11-18T08:38:16.033Z</time>
</trkpt>
<trkpt lat="22.2633203" lon="114.2542628">
<ele>72.007</ele>
<time>2017-11-18T08:38:16.133Z</time>
</trkpt>
<trkpt lat="22.2632319" lon="114.2543055">
<ele>71.988</ele>
<time>2017-11-18T08:38:30.198Z</time>
</trkpt>
<trkpt lat="22.2631414" lon="114.2542988">
<ele>72.117</ele>
<time>2017-11-18T08:38:38.033Z</time>
</trkpt>
<trkpt lat="22.2631414" lon="114.2542988">
<ele>72.483</ele>
<time>2017-11-18T08:38:42.033Z</time>
</trkpt>
<trkpt lat="22.2631414" lon="114.2542988">
<ele>72.782</ele>
<time>2017-11-18T08:40:06.101Z</time>
</trkpt>
<trkpt lat="22.2632398" lon="114.2543029">
<ele>72.552</ele>
<time>2017-11-18T08:40:21.342Z</time>
</trkpt>
<trkpt lat="22.2633299" lon="114.2543359">
<ele>72.416</ele>
<time>2017-11-18T08:40:30.334Z</time>
</trkpt>
<trkpt lat="22.2632877" lon="114.2544326">
<ele>72.491</ele>
<time>2017-11-18T08:40:39.401Z</time>
</trkpt>
<trkpt lat="22.2632407" lon="114.2545224">
<ele>72.838</ele>
<time>2017-11-18T08:40:48.030Z</time>
</trkpt>
<trkpt lat="22.2632407" lon="114.2545224">
<ele>73.367</ele>
<time>2017-11-18T08:40:58.030Z</time>
</trkpt>
<trkpt lat="22.2632407" lon="114.2545224">
<ele>73.307</ele>
<time>2017-11-18T08:41:00.139Z</time>
</trkpt>
<trkpt lat="22.2631438" lon="114.2546554">
<ele>73.219</ele>
<time>2017-11-18T08:41:22.029Z</time>
</trkpt>
<trkpt lat="22.2631438" lon="114.2546554">
<ele>73.207</ele>
<time>2017-11-18T08:41:26.029Z</time>
</trkpt>
<trkpt lat="22.2631438" lon="114.2546554">
<ele>73.224</ele>
<time>2017-11-18T08:41:29.140Z</time>
</trkpt>
<trkpt lat="22.2631779" lon="114.2547668">
<ele>73.201</ele>
<time>2017-11-18T08:41:49.940Z</time>
</trkpt>
<trkpt lat="22.2632533" lon="114.2547108">
<ele>73.348</ele>
<time>2017-11-18T08:42:03.029Z</time>
</trkpt>
<trkpt lat="22.2632533" lon="114.2547108">
<ele>73.813</ele>
<time>2017-11-18T08:42:20.028Z</time>
</trkpt>
<trkpt lat="22.2632533" lon="114.2547108">
<ele>74.203</ele>
<time>2017-11-18T08:42:20.128Z</time>
</trkpt>
<trkpt lat="22.2632509" lon="114.2548290">
<ele>74.103</ele>
<time>2017-11-18T08:42:36.028Z</time>
</trkpt>
<trkpt lat="22.2632509" lon="114.2548290">
<ele>73.755</ele>
<time>2017-11-18T08:42:40.028Z</time>
</trkpt>
<trkpt lat="22.2632509" lon="114.2548290">
<ele>73.569</ele>
<time>2017-11-18T08:42:40.128Z</time>
</trkpt>
<trkpt lat="22.2632063" lon="114.2549153">
<ele>73.630</ele>
<time>2017-11-18T08:43:02.081Z</time>
</trkpt>
<trkpt lat="22.2632784" lon="114.2549776">
<ele>73.352</ele>
<time>2017-11-18T08:43:21.059Z</time>
</trkpt>
<trkpt lat="22.2632410" lon="114.2550692">
<ele>71.807</ele>
<time>2017-11-18T08:43:40.111Z</time>
</trkpt>
<trkpt lat="22.2631595" lon="114.2551448">
<ele>66.223</ele>
<time>2017-11-18T08:43:56.713Z</time>
</trkpt>
<trkpt lat="22.2630620" lon="114.2551948">
<ele>63.874</ele>
<time>2017-11-18T08:44:04.393Z</time>
</trkpt>
<trkpt lat="22.2629692" lon="114.2552800">
<ele>62.055</ele>
<time>2017-11-18T08:44:09.397Z</time>
</trkpt>
<trkpt lat="22.2629123" lon="114.2553784">
<ele>60.995</ele>
<time>2017-11-18T08:44:13.196Z</time>
</trkpt>
<trkpt lat="22.2628692" lon="114.2554967">
<ele>60.462</ele>
<time>2017-11-18T08:44:17.306Z</time>
</trkpt>
<trkpt lat="22.2628176" lon="114.2555849">
<ele>60.180</ele>
<time>2017-11-18T08:44:20.816Z</time>
</trkpt>
<trkpt lat="22.2627406" lon="114.2556525">
<ele>60.072</ele>
<time>2017-11-18T08:44:24.630Z</time>
</trkpt>
<trkpt lat="22.2626628" lon="114.2557335">
<ele>60.187</ele>
<time>2017-11-18T08:44:28.887Z</time>
</trkpt>
<trkpt lat="22.2625897" lon="114.2557943">
<ele>60.547</ele>
<time>2017-11-18T08:44:32.384Z</time>
</trkpt>
<trkpt lat="22.2625130" lon="114.2558752">
<ele>60.946</ele>
<time>2017-11-18T08:44:36.402Z</time>
</trkpt>
<trkpt lat="22.2624460" lon="114.2559623">
<ele>61.150</ele>
<time>2017-11-18T08:44:40.354Z</time>
</trkpt>
<trkpt lat="22.2623572" lon="114.2560302">
<ele>61.094</ele>
<time>2017-11-18T08:44:44.484Z</time>
</trkpt>
<trkpt lat="22.2623032" lon="114.2561395">
<ele>60.591</ele>
<time>2017-11-18T08:44:48.849Z</time>
</trkpt>
<trkpt lat="22.2622488" lon="114.2562520">
<ele>59.519</ele>
<time>2017-11-18T08:44:53.293Z</time>
</trkpt>
<trkpt lat="22.2621653" lon="114.2563344">
<ele>58.267</ele>
<time>2017-11-18T08:44:57.554Z</time>
</trkpt>
<trkpt lat="22.2620840" lon="114.2563851">
<ele>57.365</ele>
<time>2017-11-18T08:45:01.048Z</time>
</trkpt>
<trkpt lat="22.2619976" lon="114.2564552">
<ele>56.913</ele>
<time>2017-11-18T08:45:05.109Z</time>
</trkpt>
<trkpt lat="22.2619231" lon="114.2565177">
<ele>56.778</ele>
<time>2017-11-18T08:45:09.328Z</time>
</trkpt>
<trkpt lat="22.2618314" lon="114.2565700">
<ele>56.819</ele>
<time>2017-11-18T08:45:15.054Z</time>
</trkpt>
<trkpt lat="22.2617632" lon="114.2566399">
<ele>56.815</ele>
<time>2017-11-18T08:45:21.941Z</time>
</trkpt>
<trkpt lat="22.2617019" lon="114.2567151">
<ele>56.549</ele>
<time>2017-11-18T08:45:32.030Z</time>
</trkpt>
<trkpt lat="22.2617019" lon="114.2567151">
<ele>55.892</ele>
<time>2017-11-18T08:45:32.030Z</time>
</trkpt>
<trkpt lat="22.2617019" lon="114.2567151">
<ele>55.350</ele>
<time>2017-11-18T08:45:42.738Z</time>
</trkpt>
<trkpt lat="22.2618073" lon="114.2567456">
<ele>55.338</ele>
<time>2017-11-18T08:45:55.030Z</time>
</trkpt>
<trkpt lat="22.2618073" lon="114.2567456">
<ele>55.519</ele>
<time>2017-11-18T08:46:02.030Z</time>
</trkpt>
<trkpt lat="22.2618073" lon="114.2567456">
<ele>55.517</ele>
<time>2017-11-18T08:46:26.893Z</time>
</trkpt>
<trkpt lat="22.2617099" lon="114.2567882">
<ele>55.380</ele>
<time>2017-11-18T08:46:47.700Z</time>
</trkpt>
<trkpt lat="22.2617046" lon="114.2566845">
<ele>55.195</ele>
<time>2017-11-18T08:47:00.077Z</time>
</trkpt>
<trkpt lat="22.2617328" lon="114.2565868">
<ele>54.664</ele>
<time>2017-11-18T08:47:09.687Z</time>
</trkpt>
<trkpt lat="22.2617318" lon="114.2564870">
<ele>54.143</ele>
<time>2017-11-18T08:47:19.940Z</time>
</trkpt>
<trkpt lat="22.2617621" lon="114.2563832">
<ele>54.612</ele>
<time>2017-11-18T08:47:32.867Z</time>
</trkpt>
<trkpt lat="22.2617734" lon="114.2562812">
<ele>56.426</ele>
<time>2017-11-18T08:47:44.524Z</time>
</trkpt>
<trkpt lat="22.2618415" lon="114.2562132">
<ele>58.541</ele>
<time>2017-11-18T08:47:57.175Z</time>
</trkpt>
<trkpt lat="22.2618704" lon="114.2561173">
<ele>60.415</ele>
<time>2017-11-18T08:48:11.682Z</time>
</trkpt>
<trkpt lat="22.2618704" lon="114.2560132">
<ele>62.640</ele>
<time>2017-11-18T08:48:25.063Z</time>
</trkpt>
<trkpt lat="22.2618488" lon="114.2559153">
<ele>65.047</ele>
<time>2017-11-18T08:48:36.027Z</time>
</trkpt>
<trkpt lat="22.2618488" lon="114.2559153">
<ele>66.808</ele>
<time>2017-11-18T08:48:38.027Z</time>
</trkpt>
<trkpt lat="22.2618488" lon="114.2559153">
<ele>67.520</ele>
<time>2017-11-18T08:48:49.665Z</time>
</trkpt>
<trkpt lat="22.2619354" lon="114.2558365">
<ele>67.390</ele>
<time>2017-11-18T08:49:07.011Z</time>
</trkpt>
<trkpt lat="22.2619147" lon="114.2557396">
<ele>67.647</ele>
<time>2017-11-18T08:49:16.580Z</time>
</trkpt>
<trkpt lat="22.2618570" lon="114.2556531">
<ele>69.315</ele>
<time>2017-11-18T08:49:26.512Z</time>
</trkpt>
<trkpt lat="22.2618493" lon="114.2555488">
<ele>72.100</ele>
<time>2017-11-18T08:49:34.815Z</time>
</trkpt>
<trkpt lat="22.2618851" lon="114.2554558">
<ele>74.994</ele>
<time>2017-11-18T08:49:42.025Z</time>
</trkpt>
<trkpt lat="22.2618851" lon="114.2554558">
<ele>76.964</ele>
<time>2017-11-18T08:49:59.025Z</time>
</trkpt>
<trkpt lat="22.2618851" lon="114.2554558">
<ele>77.549</ele>
<time>2017-11-18T08:49:59.125Z</time>
</trkpt>
<trkpt lat="22.2618496" lon="114.2553646">
<ele>77.350</ele>
<time>2017-11-18T08:50:14.869Z</time>
</trkpt>
<trkpt lat="22.2619053" lon="114.2552828">
<ele>77.820</ele>
<time>2017-11-18T08:50:24.025Z</time>
</trkpt>
<trkpt lat="22.2619053" lon="114.2552828">
<ele>79.677</ele>
<time>2017-11-18T08:50:39.024Z</time>
</trkpt>
<trkpt lat="22.2619053" lon="114.2552828">
<ele>81.313</ele>
<time>2017-11-18T08:50:39.124Z</time>
</trkpt>
<trkpt lat="22.2619290" lon="114.2551319">
<ele>81.264</ele>
<time>2017-11-18T08:51:27.023Z</time>
</trkpt>
<trkpt lat="22.2619290" lon="114.2551319">
<ele>80.574</ele>
<time>2017-11-18T08:51:36.023Z</time>
</trkpt>
<trkpt lat="22.2619290" lon="114.2551319">
<ele>80.476</ele>
<time>2017-11-18T08:51:36.123Z</time>
</trkpt>
<trkpt lat="22.2619164" lon="114.2550332">
<ele>80.760</ele>
<time>2017-11-18T08:52:09.303Z</time>
</trkpt>
<trkpt lat="22.2618946" lon="114.2549305">
<ele>82.960</ele>
<time>2017-11-18T08:52:23.552Z</time>
</trkpt>
<trkpt lat="22.2618537" lon="114.2548405">
<ele>89.408</ele>
<time>2017-11-18T08:52:38.134Z</time>
</trkpt>
<trkpt lat="22.2618200" lon="114.2547428">
<ele>97.039</ele>
<time>2017-11-18T08:52:54.710Z</time>
</trkpt>
<trkpt lat="22.2617322" lon="114.2547165">
<ele>102.793</ele>
<time>2017-11-18T08:53:10.944Z</time>
</trkpt>
<trkpt lat="22.2618281" lon="114.2547162">
<ele>107.175</ele>
<time>2017-11-18T08:53:28.027Z</time>
</trkpt>
<trkpt lat="22.2618281" lon="114.2547162">
<ele>110.116</ele>
<time>2017-11-18T08:53:42.027Z</time>
</trkpt>
<trkpt lat="22.2618281" lon="114.2547162">
<ele>111.134</ele>
<time>2017-11-18T08:53:55.026Z</time>
</trkpt>
<trkpt lat="22.2618281" lon="114.2547162">
<ele>110.900</ele>
<time>2017-11-18T08:53:55.126Z</time>
</trkpt>
<trkpt lat="22.2617899" lon="114.2546094">
<ele>110.489</ele>
<time>2017-11-18T08:54:06.778Z</time>
</trkpt>
<trkpt lat="22.2617038" lon="114.2545668">
<ele>110.805</ele>
<time>2017-11-18T08:54:12.026Z</time>
</trkpt>
<trkpt lat="22.2617038" lon="114.2545668">
<ele>111.853</ele>
<time>2017-11-18T08:54:28.026Z</time>
</trkpt>
<trkpt lat="22.2617038" lon="114.2545668">
<ele>112.650</ele>
<time>2017-11-18T08:54:28.159Z</time>
</trkpt>
<trkpt lat="22.2616061" lon="114.2545327">
<ele>112.437</ele>
<time>2017-11-18T08:54:42.177Z</time>
</trkpt>
<trkpt lat="22.2615187" lon="114.2544783">
<ele>111.427</ele>
<time>2017-11-18T08:54:49.025Z</time>
</trkpt>
<trkpt lat="22.2615187" lon="114.2544783">
<ele>110.291</ele>
<time>2017-11-18T08:54:50.025Z</time>
</trkpt>
<trkpt lat="22.2615187" lon="114.2544783">
<ele>109.654</ele>
<time>2017-11-18T08:54:58.861Z</time>
</trkpt>
<trkpt lat="22.2614333" lon="114.2544304">
<ele>109.929</ele>
<time>2017-11-18T08:55:24.344Z</time>
</trkpt>
<trkpt lat="22.2613468" lon="114.2543950">
<ele>109.646</ele>
<time>2017-11-18T08:55:36.024Z</time>
</trkpt>
<trkpt lat="22.2613468" lon="114.2543950">
<ele>108.455</ele>
<time>2017-11-18T08:55:37.024Z</time>
</trkpt>
<trkpt lat="22.2613468" lon="114.2543950">
<ele>107.387</ele>
<time>2017-11-18T08:55:41.459Z</time>
</trkpt>
<trkpt lat="22.2612351" lon="114.2543787">
<ele>107.865</ele>
<time>2017-11-18T08:55:51.024Z</time>
</trkpt>
<trkpt lat="22.2612351" lon="114.2543787">
<ele>108.177</ele>
<time>2017-11-18T08:55:58.024Z</time>
</trkpt>
<trkpt lat="22.2612351" lon="114.2543787">
<ele>108.115</ele>
<time>2017-11-18T08:56:02.224Z</time>
</trkpt>
<trkpt lat="22.2610408" lon="114.2544327">
<ele>107.898</ele>
<time>2017-11-18T08:56:30.085Z</time>
</trkpt>
<trkpt lat="22.2609521" lon="114.2544056">
<ele>107.568</ele>
<time>2017-11-18T08:56:41.618Z</time>
</trkpt>
<trkpt lat="22.2608762" lon="114.2543488">
<ele>106.866</ele>
<time>2017-11-18T08:57:01.743Z</time>
</trkpt>
<trkpt lat="22.2607798" lon="114.2543516">
<ele>105.896</ele>
<time>2017-11-18T08:57:16.793Z</time>
</trkpt>
<trkpt lat="22.2606970" lon="114.2543067">
<ele>105.041</ele>
<time>2017-11-18T08:57:30.521Z</time>
</trkpt>
<trkpt lat="22.2606134" lon="114.2543496">
<ele>104.457</ele>
<time>2017-11-18T08:57:44.958Z</time>
</trkpt>
<trkpt lat="22.2605238" lon="114.2543351">
<ele>104.060</ele>
<time>2017-11-18T08:58:02.021Z</time>
</trkpt>
<trkpt lat="22.2605238" lon="114.2543351">
<ele>103.758</ele>
<time>2017-11-18T08:58:06.021Z</time>
</trkpt>
<trkpt lat="22.2605238" lon="114.2543351">
<ele>103.571</ele>
<time>2017-11-18T08:58:26.020Z</time>
</trkpt>
<trkpt lat="22.2605238" lon="114.2543351">
<ele>103.540</ele>
<time>2017-11-18T08:58:57.069Z</time>
</trkpt>
<trkpt lat="22.2605315" lon="114.2542081">
<ele>103.532</ele>
<time>2017-11-18T08:59:48.389Z</time>
</trkpt>
<trkpt lat="22.2604344" lon="114.2541937">
<ele>103.130</ele>
<time>2017-11-18T09:00:00.024Z</time>
</trkpt>
<trkpt lat="22.2604344" lon="114.2541937">
<ele>102.181</ele>
<time>2017-11-18T09:00:07.024Z</time>
</trkpt>
<trkpt lat="22.2604344" lon="114.2541937">
<ele>101.391</ele>
<time>2017-11-18T09:03:17.969Z</time>
</trkpt>
<trkpt lat="22.2602902" lon="114.2542435">
<ele>101.364</ele>
<time>2017-11-18T09:03:43.020Z</time>
</trkpt>
<trkpt lat="22.2602902" lon="114.2542435">
<ele>101.617</ele>
<time>2017-11-18T09:03:55.019Z</time>
</trkpt>
<trkpt lat="22.2602902" lon="114.2542435">
<ele>101.605</ele>
<time>2017-11-18T09:04:11.019Z</time>
</trkpt>
<trkpt lat="22.2602902" lon="114.2542435">
<ele>101.444</ele>
<time>2017-11-18T09:04:14.088Z</time>
</trkpt>
<trkpt lat="22.2602117" lon="114.2541790">
<ele>101.426</ele>
<time>2017-11-18T09:04:55.199Z</time>
</trkpt>
<trkpt lat="22.2601199" lon="114.2541556">
<ele>101.579</ele>
<time>2017-11-18T09:05:07.983Z</time>
</trkpt>
<trkpt lat="22.2600303" lon="114.2541719">
<ele>102.000</ele>
<time>2017-11-18T09:05:17.953Z</time>
</trkpt>
<trkpt lat="22.2599483" lon="114.2541030">
<ele>102.479</ele>
<time>2017-11-18T09:05:29.647Z</time>
</trkpt>
<trkpt lat="22.2598586" lon="114.2541186">
<ele>102.380</ele>
<time>2017-11-18T09:05:41.333Z</time>
</trkpt>
<trkpt lat="22.2597649" lon="114.2541359">
<ele>101.273</ele>
<time>2017-11-18T09:05:54.296Z</time>
</trkpt>
<trkpt lat="22.2597077" lon="114.2540590">
<ele>99.615</ele>
<time>2017-11-18T09:06:06.017Z</time>
</trkpt>
<trkpt lat="22.2597077" lon="114.2540590">
<ele>98.542</ele>
<time>2017-11-18T09:06:29.016Z</time>
</trkpt>
<trkpt lat="22.2597077" lon="114.2540590">
<ele>98.558</ele>
<time>2017-11-18T09:06:46.098Z</time>
</trkpt>
<trkpt lat="22.2595223" lon="114.2540075">
<ele>99.065</ele>
<time>2017-11-18T09:07:12.091Z</time>
</trkpt>
<trkpt lat="22.2594418" lon="114.2539624">
<ele>100.163</ele>
<time>2017-11-18T09:07:21.021Z</time>
</trkpt>
<trkpt lat="22.2594418" lon="114.2539624">
<ele>102.183</ele>
<time>2017-11-18T09:07:32.021Z</time>
</trkpt>
<trkpt lat="22.2594418" lon="114.2539624">
<ele>103.743</ele>
<time>2017-11-18T09:07:36.444Z</time>
</trkpt>
<trkpt lat="22.2592058" lon="114.2539327">
<ele>103.661</ele>
<time>2017-11-18T09:08:18.056Z</time>
</trkpt>
<trkpt lat="22.2591178" lon="114.2539060">
<ele>104.215</ele>
<time>2017-11-18T09:08:30.032Z</time>
</trkpt>
<trkpt lat="22.2590347" lon="114.2538613">
<ele>107.338</ele>
<time>2017-11-18T09:08:40.820Z</time>
</trkpt>
<trkpt lat="22.2589648" lon="114.2537962">
<ele>111.307</ele>
<time>2017-11-18T09:08:52.146Z</time>
</trkpt>
<trkpt lat="22.2589295" lon="114.2537066">
<ele>114.332</ele>
<time>2017-11-18T09:09:03.805Z</time>
</trkpt>
<trkpt lat="22.2588505" lon="114.2536597">
<ele>117.248</ele>
<time>2017-11-18T09:09:16.019Z</time>
</trkpt>
<trkpt lat="22.2588505" lon="114.2536597">
<ele>120.428</ele>
<time>2017-11-18T09:09:54.018Z</time>
</trkpt>
<trkpt lat="22.2588505" lon="114.2536597">
<ele>122.388</ele>
<time>2017-11-18T09:10:28.159Z</time>
</trkpt>
<trkpt lat="22.2588307" lon="114.2535628">
<ele>122.224</ele>
<time>2017-11-18T09:10:38.017Z</time>
</trkpt>
<trkpt lat="22.2588307" lon="114.2535628">
<ele>121.394</ele>
<time>2017-11-18T09:10:52.017Z</time>
</trkpt>
<trkpt lat="22.2588307" lon="114.2535628">
<ele>121.277</ele>
<time>2017-11-18T09:10:52.117Z</time>
</trkpt>
<trkpt lat="22.2587293" lon="114.2535555">
<ele>121.673</ele>
<time>2017-11-18T09:11:06.016Z</time>
</trkpt>
<trkpt lat="22.2587293" lon="114.2535555">
<ele>121.928</ele>
<time>2017-11-18T09:11:09.016Z</time>
</trkpt>
<trkpt lat="22.2587293" lon="114.2535555">
<ele>121.902</ele>
<time>2017-11-18T09:11:24.016Z</time>
</trkpt>
<trkpt lat="22.2587293" lon="114.2535555">
<ele>121.795</ele>
<time>2017-11-18T09:11:24.906Z</time>
</trkpt>
<trkpt lat="22.2586375" lon="114.2535302">
<ele>121.743</ele>
<time>2017-11-18T09:12:08.015Z</time>
</trkpt>
<trkpt lat="22.2586375" lon="114.2535302">
<ele>121.751</ele>
<time>2017-11-18T09:12:09.015Z</time>
</trkpt>
<trkpt lat="22.2586375" lon="114.2535302">
<ele>121.738</ele>
<time>2017-11-18T09:12:36.580Z</time>
</trkpt>
<trkpt lat="22.2585406" lon="114.2535182">
<ele>121.687</ele>
<time>2017-11-18T09:12:53.014Z</time>
</trkpt>
<trkpt lat="22.2585406" lon="114.2535182">
<ele>121.632</ele>
<time>2017-11-18T09:13:02.014Z</time>
</trkpt>
<trkpt lat="22.2585406" lon="114.2535182">
<ele>121.596</ele>
<time>2017-11-18T09:13:20.014Z</time>
</trkpt>
<trkpt lat="22.2585406" lon="114.2535182">
<ele>121.561</ele>
<time>2017-11-18T09:13:39.710Z</time>
</trkpt>
<trkpt lat="22.2584074" lon="114.2534263">
<ele>121.522</ele>
<time>2017-11-18T09:13:54.013Z</time>
</trkpt>
<trkpt lat="22.2584074" lon="114.2534263">
<ele>121.490</ele>
<time>2017-11-18T09:14:06.019Z</time>
</trkpt>
<trkpt lat="22.2584074" lon="114.2534263">
<ele>121.458</ele>
<time>2017-11-18T09:14:06.119Z</time>
</trkpt>
<trkpt lat="22.2582282" lon="114.2532802">
<ele>121.419</ele>
<time>2017-11-18T09:14:33.329Z</time>
</trkpt>
<trkpt lat="22.2581302" lon="114.2532635">
<ele>125.462</ele>
<time>2017-11-18T09:14:41.018Z</time>
</trkpt>
<trkpt lat="22.2581302" lon="114.2532635">
<ele>136.062</ele>
<time>2017-11-18T09:14:54.018Z</time>
</trkpt>
<trkpt lat="22.2581302" lon="114.2532635">
<ele>144.889</ele>
<time>2017-11-18T09:15:06.861Z</time>
</trkpt>
<trkpt lat="22.2580359" lon="114.2532410">
<ele>144.681</ele>
<time>2017-11-18T09:15:18.017Z</time>
</trkpt>
<trkpt lat="22.2580359" lon="114.2532410">
<ele>141.136</ele>
<time>2017-11-18T09:15:24.017Z</time>
</trkpt>
<trkpt lat="22.2580359" lon="114.2532410">
<ele>140.735</ele>
<time>2017-11-18T09:16:58.462Z</time>
</trkpt>
<trkpt lat="22.2579337" lon="114.2531928">
<ele>142.636</ele>
<time>2017-11-18T09:17:08.015Z</time>
</trkpt>
<trkpt lat="22.2579337" lon="114.2531928">
<ele>143.896</ele>
<time>2017-11-18T09:17:24.015Z</time>
</trkpt>
<trkpt lat="22.2579337" lon="114.2531928">
<ele>143.953</ele>
<time>2017-11-18T09:21:30.559Z</time>
</trkpt>
<trkpt lat="22.2579010" lon="114.2533376">
<ele>143.676</ele>
<time>2017-11-18T09:21:59.732Z</time>
</trkpt>
<trkpt lat="22.2578104" lon="114.2533468">
<ele>146.351</ele>
<time>2017-11-18T09:22:17.692Z</time>
</trkpt>
<trkpt lat="22.2577212" lon="114.2533761">
<ele>153.490</ele>
<time>2017-11-18T09:22:37.015Z</time>
</trkpt>
<trkpt lat="22.2577212" lon="114.2533761">
<ele>159.654</ele>
<time>2017-11-18T09:22:51.015Z</time>
</trkpt>
<trkpt lat="22.2577212" lon="114.2533761">
<ele>160.096</ele>
<time>2017-11-18T09:22:59.000Z</time>
</trkpt>
<trkpt lat="22.2575985" lon="114.2534084">
<ele>157.272</ele>
<time>2017-11-18T09:23:13.014Z</time>
</trkpt>
<trkpt lat="22.2575985" lon="114.2534084">
<ele>155.113</ele>
<time>2017-11-18T09:23:22.014Z</time>
</trkpt>
<trkpt lat="22.2575985" lon="114.2534084">
<ele>154.731</ele>
<time>2017-11-18T09:24:40.125Z</time>
</trkpt>
<trkpt lat="22.2574466" lon="114.2534559">
<ele>155.029</ele>
<time>2017-11-18T09:25:01.002Z</time>
</trkpt>
<trkpt lat="22.2573692" lon="114.2534050">
<ele>153.059</ele>
<time>2017-11-18T09:25:12.644Z</time>
</trkpt>
<trkpt lat="22.2573067" lon="114.2534833">
<ele>147.376</ele>
<time>2017-11-18T09:25:38.013Z</time>
</trkpt>
<trkpt lat="22.2573067" lon="114.2534833">
<ele>140.913</ele>
<time>2017-11-18T09:25:52.012Z</time>
</trkpt>
<trkpt lat="22.2573067" lon="114.2534833">
<ele>137.714</ele>
<time>2017-11-18T09:25:52.878Z</time>
</trkpt>
<trkpt lat="22.2571051" lon="114.2535809">
<ele>137.976</ele>
<time>2017-11-18T09:26:17.012Z</time>
</trkpt>
<trkpt lat="22.2571051" lon="114.2535809">
<ele>139.123</ele>
<time>2017-11-18T09:26:45.012Z</time>
</trkpt>
<trkpt lat="22.2571051" lon="114.2535809">
<ele>139.160</ele>
<time>2017-11-18T09:26:45.600Z</time>
</trkpt>
<trkpt lat="22.2570228" lon="114.2536677">
<ele>138.455</ele>
<time>2017-11-18T09:27:09.527Z</time>
</trkpt>
<trkpt lat="22.2570260" lon="114.2537693">
<ele>134.342</ele>
<time>2017-11-18T09:27:23.862Z</time>
</trkpt>
<trkpt lat="22.2569589" lon="114.2538402">
<ele>124.134</ele>
<time>2017-11-18T09:27:35.796Z</time>
</trkpt>
<trkpt lat="22.2568808" lon="114.2539033">
<ele>112.372</ele>
<time>2017-11-18T09:27:49.360Z</time>
</trkpt>
<trkpt lat="22.2568017" lon="114.2539988">
<ele>104.582</ele>
<time>2017-11-18T09:28:07.011Z</time>
</trkpt>
<trkpt lat="22.2568017" lon="114.2539988">
<ele>100.893</ele>
<time>2017-11-18T09:28:25.010Z</time>
</trkpt>
<trkpt lat="22.2568017" lon="114.2539988">
<ele>99.877</ele>
<time>2017-11-18T09:28:36.479Z</time>
</trkpt>
<trkpt lat="22.2569160" lon="114.2541283">
<ele>100.102</ele>
<time>2017-11-18T09:29:14.059Z</time>
</trkpt>
<trkpt lat="22.2569404" lon="114.2542338">
<ele>98.267</ele>
<time>2017-11-18T09:29:29.167Z</time>
</trkpt>
<trkpt lat="22.2569959" lon="114.2543115">
<ele>91.861</ele>
<time>2017-11-18T09:29:44.016Z</time>
</trkpt>
<trkpt lat="22.2569959" lon="114.2543115">
<ele>83.866</ele>
<time>2017-11-18T09:29:54.015Z</time>
</trkpt>
<trkpt lat="22.2569959" lon="114.2543115">
<ele>79.584</ele>
<time>2017-11-18T09:29:54.140Z</time>
</trkpt>
<trkpt lat="22.2569102" lon="114.2543644">
<ele>79.910</ele>
<time>2017-11-18T09:30:14.107Z</time>
</trkpt>
<trkpt lat="22.2568582" lon="114.2544488">
<ele>81.755</ele>
<time>2017-11-18T09:30:26.953Z</time>
</trkpt>
<trkpt lat="22.2568028" lon="114.2545332">
<ele>82.358</ele>
<time>2017-11-18T09:30:36.477Z</time>
</trkpt>
<trkpt lat="22.2568331" lon="114.2546286">
<ele>81.469</ele>
<time>2017-11-18T09:30:45.734Z</time>
</trkpt>
<trkpt lat="22.2568034" lon="114.2547207">
<ele>79.842</ele>
<time>2017-11-18T09:30:56.810Z</time>
</trkpt>
<trkpt lat="22.2568267" lon="114.2548267">
<ele>78.289</ele>
<time>2017-11-18T09:31:07.220Z</time>
</trkpt>
<trkpt lat="22.2567902" lon="114.2549283">
<ele>77.231</ele>
<time>2017-11-18T09:31:17.530Z</time>
</trkpt>
<trkpt lat="22.2567184" lon="114.2549933">
<ele>76.532</ele>
<time>2017-11-18T09:31:28.013Z</time>
</trkpt>
<trkpt lat="22.2567184" lon="114.2549933">
<ele>76.079</ele>
<time>2017-11-18T09:31:51.013Z</time>
</trkpt>
<trkpt lat="22.2567184" lon="114.2549933">
<ele>75.895</ele>
<time>2017-11-18T09:31:51.113Z</time>
</trkpt>
<trkpt lat="22.2565679" lon="114.2550269">
<ele>75.953</ele>
<time>2017-11-18T09:32:24.756Z</time>
</trkpt>
<trkpt lat="22.2565597" lon="114.2551319">
<ele>76.908</ele>
<time>2017-11-18T09:32:33.287Z</time>
</trkpt>
<trkpt lat="22.2564723" lon="114.2551885">
<ele>79.088</ele>
<time>2017-11-18T09:32:41.186Z</time>
</trkpt>
<trkpt lat="22.2563882" lon="114.2552406">
<ele>81.465</ele>
<time>2017-11-18T09:32:48.011Z</time>
</trkpt>
<trkpt lat="22.2563882" lon="114.2552406">
<ele>83.018</ele>
<time>2017-11-18T09:32:55.011Z</time>
</trkpt>
<trkpt lat="22.2563882" lon="114.2552406">
<ele>83.618</ele>
<time>2017-11-18T09:33:18.821Z</time>
</trkpt>
<trkpt lat="22.2563378" lon="114.2553441">
<ele>83.152</ele>
<time>2017-11-18T09:33:43.810Z</time>
</trkpt>
<trkpt lat="22.2562463" lon="114.2553615">
<ele>83.170</ele>
<time>2017-11-18T09:33:54.137Z</time>
</trkpt>
<trkpt lat="22.2561695" lon="114.2554186">
<ele>83.809</ele>
<time>2017-11-18T09:34:01.541Z</time>
</trkpt>
<trkpt lat="22.2560788" lon="114.2554713">
<ele>84.750</ele>
<time>2017-11-18T09:34:09.461Z</time>
</trkpt>
<trkpt lat="22.2559853" lon="114.2554779">
<ele>85.479</ele>
<time>2017-11-18T09:34:17.009Z</time>
</trkpt>
<trkpt lat="22.2559853" lon="114.2554779">
<ele>85.816</ele>
<time>2017-11-18T09:34:26.009Z</time>
</trkpt>
<trkpt lat="22.2559853" lon="114.2554779">
<ele>85.853</ele>
<time>2017-11-18T09:34:49.635Z</time>
</trkpt>
<trkpt lat="22.2560160" lon="114.2553750">
<ele>85.725</ele>
<time>2017-11-18T09:35:13.769Z</time>
</trkpt>
<trkpt lat="22.2559992" lon="114.2552730">
<ele>85.896</ele>
<time>2017-11-18T09:35:26.839Z</time>
</trkpt>
<trkpt lat="22.2560585" lon="114.2551955">
<ele>86.793</ele>
<time>2017-11-18T09:35:37.770Z</time>
</trkpt>
<trkpt lat="22.2560222" lon="114.2551059">
<ele>89.985</ele>
<time>2017-11-18T09:35:49.365Z</time>
</trkpt>
<trkpt lat="22.2559621" lon="114.2550257">
<ele>91.432</ele>
<time>2017-11-18T09:36:02.079Z</time>
</trkpt>
<trkpt lat="22.2559213" lon="114.2549350">
<ele>91.771</ele>
<time>2017-11-18T09:36:13.628Z</time>
</trkpt>
<trkpt lat="22.2558889" lon="114.2548375">
<ele>92.474</ele>
<time>2017-11-18T09:36:25.006Z</time>
</trkpt>
<trkpt lat="22.2558889" lon="114.2548375">
<ele>93.258</ele>
<time>2017-11-18T09:36:29.006Z</time>
</trkpt>
<trkpt lat="22.2558889" lon="114.2548375">
<ele>93.730</ele>
<time>2017-11-18T09:36:41.897Z</time>
</trkpt>
<trkpt lat="22.2558889" lon="114.2548375">
<ele>93.371</ele>
<time>2017-11-18T09:36:52.012Z</time>
</trkpt>
<trkpt lat="22.2558889" lon="114.2548375">
<ele>93.186</ele>
<time>2017-11-18T09:36:52.112Z</time>
</trkpt>
<trkpt lat="22.2558889" lon="114.2548375">
<ele>93.207</ele>
<time>2017-11-18T09:36:54.012Z</time>
</trkpt>
<trkpt lat="22.2558889" lon="114.2548375">
<ele>93.228</ele>
<time>2017-11-18T09:37:12.550Z</time>
</trkpt>
<trkpt lat="22.2558035" lon="114.2547820">
<ele>93.188</ele>
<time>2017-11-18T09:37:27.623Z</time>
</trkpt>
<trkpt lat="22.2557099" lon="114.2547964">
<ele>93.527</ele>
<time>2017-11-18T09:37:36.011Z</time>
</trkpt>
<trkpt lat="22.2557099" lon="114.2547964">
<ele>94.530</ele>
<time>2017-11-18T09:37:44.011Z</time>
</trkpt>
<trkpt lat="22.2557099" lon="114.2547964">
<ele>95.370</ele>
<time>2017-11-18T09:38:04.011Z</time>
</trkpt>
<trkpt lat="22.2557099" lon="114.2547964">
<ele>95.318</ele>
<time>2017-11-18T09:38:04.111Z</time>
</trkpt>
<trkpt lat="22.2556341" lon="114.2548979">
<ele>94.825</ele>
<time>2017-11-18T09:38:21.819Z</time>
</trkpt>
<trkpt lat="22.2555427" lon="114.2549031">
<ele>94.347</ele>
<time>2017-11-18T09:38:32.382Z</time>
</trkpt>
<trkpt lat="22.2554516" lon="114.2549101">
<ele>93.840</ele>
<time>2017-11-18T09:38:43.179Z</time>
</trkpt>
<trkpt lat="22.2553569" lon="114.2548957">
<ele>93.005</ele>
<time>2017-11-18T09:38:54.877Z</time>
</trkpt>
<trkpt lat="22.2552576" lon="114.2548865">
<ele>91.656</ele>
<time>2017-11-18T09:39:07.009Z</time>
</trkpt>
<trkpt lat="22.2552576" lon="114.2548865">
<ele>90.241</ele>
<time>2017-11-18T09:39:26.009Z</time>
</trkpt>
<trkpt lat="22.2552576" lon="114.2548865">
<ele>89.504</ele>
<time>2017-11-18T09:39:26.109Z</time>
</trkpt>
<trkpt lat="22.2551583" lon="114.2548129">
<ele>89.533</ele>
<time>2017-11-18T09:39:37.008Z</time>
</trkpt>
<trkpt lat="22.2551583" lon="114.2548129">
<ele>89.766</ele>
<time>2017-11-18T09:39:57.008Z</time>
</trkpt>
<trkpt lat="22.2551583" lon="114.2548129">
<ele>89.751</ele>
<time>2017-11-18T09:39:57.108Z</time>
</trkpt>
<trkpt lat="22.2550237" lon="114.2547990">
<ele>89.608</ele>
<time>2017-11-18T09:40:12.471Z</time>
</trkpt>
<trkpt lat="22.2549349" lon="114.2547741">
<ele>89.564</ele>
<time>2017-11-18T09:40:19.161Z</time>
</trkpt>
<trkpt lat="22.2548420" lon="114.2547876">
<ele>89.569</ele>
<time>2017-11-18T09:40:26.007Z</time>
</trkpt>
<trkpt lat="22.2548420" lon="114.2547876">
<ele>89.519</ele>
<time>2017-11-18T09:40:39.007Z</time>
</trkpt>
<trkpt lat="22.2548420" lon="114.2547876">
<ele>89.445</ele>
<time>2017-11-18T09:40:45.058Z</time>
</trkpt>
<trkpt lat="22.2548064" lon="114.2548847">
<ele>89.407</ele>
<time>2017-11-18T09:41:00.697Z</time>
</trkpt>
<trkpt lat="22.2547791" lon="114.2549819">
<ele>88.121</ele>
<time>2017-11-18T09:41:09.204Z</time>
</trkpt>
<trkpt lat="22.2547013" lon="114.2550315">
<ele>84.205</ele>
<time>2017-11-18T09:41:16.006Z</time>
</trkpt>
<trkpt lat="22.2547013" lon="114.2550315">
<ele>79.256</ele>
<time>2017-11-18T09:41:29.006Z</time>
</trkpt>
<trkpt lat="22.2547013" lon="114.2550315">
<ele>76.511</ele>
<time>2017-11-18T09:41:29.106Z</time>
</trkpt>
<trkpt lat="22.2546042" lon="114.2550141">
<ele>78.061</ele>
<time>2017-11-18T09:42:05.546Z</time>
</trkpt>
<trkpt lat="22.2545117" lon="114.2550202">
<ele>77.989</ele>
<time>2017-11-18T09:42:16.509Z</time>
</trkpt>
<trkpt lat="22.2544146" lon="114.2550122">
<ele>75.568</ele>
<time>2017-11-18T09:42:24.367Z</time>
</trkpt>
<trkpt lat="22.2543428" lon="114.2549333">
<ele>72.651</ele>
<time>2017-11-18T09:42:33.234Z</time>
</trkpt>
<trkpt lat="22.2542619" lon="114.2549816">
<ele>70.810</ele>
<time>2017-11-18T09:42:42.027Z</time>
</trkpt>
<trkpt lat="22.2541675" lon="114.2549918">
<ele>69.495</ele>
<time>2017-11-18T09:42:55.004Z</time>
</trkpt>
<trkpt lat="22.2541675" lon="114.2549918">
<ele>68.336</ele>
<time>2017-11-18T09:43:01.004Z</time>
</trkpt>
<trkpt lat="22.2541675" lon="114.2549918">
<ele>67.709</ele>
<time>2017-11-18T09:43:27.420Z</time>
</trkpt>
<trkpt lat="22.2540767" lon="114.2549725">
<ele>67.733</ele>
<time>2017-11-18T09:43:38.534Z</time>
</trkpt>
<trkpt lat="22.2539865" lon="114.2549803">
<ele>67.286</ele>
<time>2017-11-18T09:43:44.003Z</time>
</trkpt>
<trkpt lat="22.2539865" lon="114.2549803">
<ele>65.585</ele>
<time>2017-11-18T09:44:00.009Z</time>
</trkpt>
<trkpt lat="22.2539865" lon="114.2549803">
<ele>64.053</ele>
<time>2017-11-18T09:44:15.406Z</time>
</trkpt>
<trkpt lat="22.2538529" lon="114.2551363">
<ele>64.040</ele>
<time>2017-11-18T09:44:37.825Z</time>
</trkpt>
<trkpt lat="22.2537801" lon="114.2552115">
<ele>63.759</ele>
<time>2017-11-18T09:44:47.101Z</time>
</trkpt>
<trkpt lat="22.2536626" lon="114.2552373">
<ele>60.012</ele>
<time>2017-11-18T09:44:56.713Z</time>
</trkpt>
<trkpt lat="22.2535771" lon="114.2552797">
<ele>53.736</ele>
<time>2017-11-18T09:45:04.095Z</time>
</trkpt>
<trkpt lat="22.2534837" lon="114.2552810">
<ele>43.105</ele>
<time>2017-11-18T09:45:12.007Z</time>
</trkpt>
<trkpt lat="22.2534837" lon="114.2552810">
<ele>40.720</ele>
<time>2017-11-18T09:45:16.007Z</time>
</trkpt>
<trkpt lat="22.2534837" lon="114.2552810">
<ele>40.293</ele>
<time>2017-11-18T09:45:20.927Z</time>
</trkpt>
<trkpt lat="22.2535529" lon="114.2554014">
<ele>40.804</ele>
<time>2017-11-18T09:45:31.007Z</time>
</trkpt>
<trkpt lat="22.2535529" lon="114.2554014">
<ele>40.763</ele>
<time>2017-11-18T09:45:34.006Z</time>
</trkpt>
<trkpt lat="22.2535529" lon="114.2554014">
<ele>40.709</ele>
<time>2017-11-18T09:45:36.588Z</time>
</trkpt>
<trkpt lat="22.2535529" lon="114.2554014">
<ele>40.700</ele>
<time>2017-11-18T09:45:52.006Z</time>
</trkpt>
<trkpt lat="22.2535529" lon="114.2554014">
<ele>40.702</ele>
<time>2017-11-18T09:46:53.378Z</time>
</trkpt>
<trkpt lat="22.2534893" lon="114.2554740">
<ele>40.663</ele>
<time>2017-11-18T09:47:01.004Z</time>
</trkpt>
<trkpt lat="22.2534893" lon="114.2554740">
<ele>40.646</ele>
<time>2017-11-18T09:47:07.004Z</time>
</trkpt>
<trkpt lat="22.2534893" lon="114.2554740">
<ele>40.628</ele>
<time>2017-11-18T09:47:32.028Z</time>
</trkpt>
<trkpt lat="22.2533887" lon="114.2554792">
<ele>40.599</ele>
<time>2017-11-18T09:47:44.003Z</time>
</trkpt>
<trkpt lat="22.2533887" lon="114.2554792">
<ele>40.590</ele>
<time>2017-11-18T09:48:16.003Z</time>
</trkpt>
<trkpt lat="22.2533887" lon="114.2554792">
<ele>40.572</ele>
<time>2017-11-18T09:48:37.002Z</time>
</trkpt>
<trkpt lat="22.2533369" lon="114.2554365">
<ele>23.448</ele>
<time>2017-11-18T09:48:54.002Z</time>
</trkpt>
<trkpt lat="22.2533369" lon="114.2554365">
<ele>23.437</ele>
<time>2017-11-18T09:49:15.001Z</time>
</trkpt>
<trkpt lat="22.2533369" lon="114.2554365">
<ele>23.431</ele>
<time>2017-11-18T09:49:35.082Z</time>
</trkpt>
<trkpt lat="22.2534677" lon="114.2553157">
<ele>23.426</ele>
<time>2017-11-18T09:49:47.000Z</time>
</trkpt>
<trkpt lat="22.2534677" lon="114.2553157">
<ele>23.420</ele>
<time>2017-11-18T09:49:58.000Z</time>
</trkpt>
<trkpt lat="22.2534677" lon="114.2553157">
<ele>23.413</ele>
<time>2017-11-18T09:50:30.863Z</time>
</trkpt>
<trkpt lat="22.2535852" lon="114.2552630">
<ele>23.405</ele>
<time>2017-11-18T09:50:51.297Z</time>
</trkpt>
<trkpt lat="22.2536767" lon="114.2552605">
<ele>24.127</ele>
<time>2017-11-18T09:51:05.068Z</time>
</trkpt>
<trkpt lat="22.2537690" lon="114.2552706">
<ele>27.003</ele>
<time>2017-11-18T09:51:32.004Z</time>
</trkpt>
<trkpt lat="22.2537690" lon="114.2552706">
<ele>31.508</ele>
<time>2017-11-18T09:51:42.004Z</time>
</trkpt>
<trkpt lat="22.2537690" lon="114.2552706">
<ele>34.465</ele>
<time>2017-11-18T09:51:42.648Z</time>
</trkpt>
<trkpt lat="22.2538591" lon="114.2553005">
<ele>34.306</ele>
<time>2017-11-18T09:52:04.538Z</time>
</trkpt>
<trkpt lat="22.2539305" lon="114.2552348">
<ele>34.563</ele>
<time>2017-11-18T09:52:24.003Z</time>
</trkpt>
<trkpt lat="22.2539305" lon="114.2552348">
<ele>38.161</ele>
<time>2017-11-18T09:52:24.003Z</time>
</trkpt>
<trkpt lat="22.2539305" lon="114.2552348">
<ele>41.712</ele>
<time>2017-11-18T09:52:32.229Z</time>
</trkpt>
<trkpt lat="22.2539007" lon="114.2551301">
<ele>39.788</ele>
<time>2017-11-18T09:52:49.433Z</time>
</trkpt>
<trkpt lat="22.2538816" lon="114.2550314">
<ele>40.226</ele>
<time>2017-11-18T09:53:01.851Z</time>
</trkpt>
<trkpt lat="22.2538514" lon="114.2549378">
<ele>45.049</ele>
<time>2017-11-18T09:53:13.697Z</time>
</trkpt>
<trkpt lat="22.2538219" lon="114.2548453">
<ele>51.513</ele>
<time>2017-11-18T09:53:24.267Z</time>
</trkpt>
<trkpt lat="22.2537358" lon="114.2548099">
<ele>56.132</ele>
<time>2017-11-18T09:53:34.075Z</time>
</trkpt>
<trkpt lat="22.2536466" lon="114.2547634">
<ele>58.642</ele>
<time>2017-11-18T09:53:44.981Z</time>
</trkpt>
<trkpt lat="22.2535959" lon="114.2546748">
<ele>60.053</ele>
<time>2017-11-18T09:53:55.063Z</time>
</trkpt>
<trkpt lat="22.2535605" lon="114.2545707">
<ele>61.336</ele>
<time>2017-11-18T09:54:03.761Z</time>
</trkpt>
<trkpt lat="22.2534652" lon="114.2545705">
<ele>62.863</ele>
<time>2017-11-18T09:54:11.964Z</time>
</trkpt>
<trkpt lat="22.2533827" lon="114.2545295">
<ele>64.414</ele>
<time>2017-11-18T09:54:19.720Z</time>
</trkpt>
<trkpt lat="22.2533100" lon="114.2544713">
<ele>65.779</ele>
<time>2017-11-18T09:54:29.225Z</time>
</trkpt>
<trkpt lat="22.2532122" lon="114.2544612">
<ele>67.018</ele>
<time>2017-11-18T09:54:40.139Z</time>
</trkpt>
<trkpt lat="22.2531551" lon="114.2543763">
<ele>68.475</ele>
<time>2017-11-18T09:54:49.016Z</time>
</trkpt>
<trkpt lat="22.2531129" lon="114.2542882">
<ele>70.366</ele>
<time>2017-11-18T09:54:58.522Z</time>
</trkpt>
<trkpt lat="22.2531384" lon="114.2541932">
<ele>72.424</ele>
<time>2017-11-18T09:55:08.000Z</time>
</trkpt>
<trkpt lat="22.2531384" lon="114.2541932">
<ele>74.097</ele>
<time>2017-11-18T09:55:12.000Z</time>
</trkpt>
<trkpt lat="22.2531384" lon="114.2541932">
<ele>74.878</ele>
<time>2017-11-18T09:55:12.271Z</time>
</trkpt>
<trkpt lat="22.2530357" lon="114.2541577">
<ele>74.762</ele>
<time>2017-11-18T09:55:25.000Z</time>
</trkpt>
<trkpt lat="22.2530357" lon="114.2541577">
<ele>74.421</ele>
<time>2017-11-18T09:55:34.999Z</time>
</trkpt>
<trkpt lat="22.2530357" lon="114.2541577">
<ele>74.367</ele>
<time>2017-11-18T09:55:35.099Z</time>
</trkpt>
<trkpt lat="22.2530357" lon="114.2541577">
<ele>74.474</ele>
<time>2017-11-18T09:55:51.999Z</time>
</trkpt>
<trkpt lat="22.2530357" lon="114.2541577">
<ele>74.408</ele>
<time>2017-11-18T09:56:01.085Z</time>
</trkpt>
<trkpt lat="22.2531333" lon="114.2541245">
<ele>74.368</ele>
<time>2017-11-18T09:56:19.723Z</time>
</trkpt>
<trkpt lat="22.2532172" lon="114.2540819">
<ele>75.840</ele>
<time>2017-11-18T09:56:28.663Z</time>
</trkpt>
<trkpt lat="22.2532914" lon="114.2541579">
<ele>79.689</ele>
<time>2017-11-18T09:56:38.089Z</time>
</trkpt>
<trkpt lat="22.2533693" lon="114.2542093">
<ele>83.853</ele>
<time>2017-11-18T09:56:45.864Z</time>
</trkpt>
<trkpt lat="22.2534628" lon="114.2542271">
<ele>86.335</ele>
<time>2017-11-18T09:56:53.639Z</time>
</trkpt>
<trkpt lat="22.2535555" lon="114.2542472">
<ele>87.552</ele>
<time>2017-11-18T09:57:01.237Z</time>
</trkpt>
<trkpt lat="22.2536435" lon="114.2542205">
<ele>88.291</ele>
<time>2017-11-18T09:57:08.823Z</time>
</trkpt>
<trkpt lat="22.2537417" lon="114.2542016">
<ele>89.055</ele>
<time>2017-11-18T09:57:17.886Z</time>
</trkpt>
<trkpt lat="22.2538319" lon="114.2541837">
<ele>90.094</ele>
<time>2017-11-18T09:57:26.712Z</time>
</trkpt>
<trkpt lat="22.2539285" lon="114.2541873">
<ele>91.365</ele>
<time>2017-11-18T09:57:34.997Z</time>
</trkpt>
<trkpt lat="22.2539285" lon="114.2541873">
<ele>92.445</ele>
<time>2017-11-18T09:57:40.997Z</time>
</trkpt>
<trkpt lat="22.2539285" lon="114.2541873">
<ele>92.920</ele>
<time>2017-11-18T09:57:54.603Z</time>
</trkpt>
<trkpt lat="22.2540190" lon="114.2541664">
<ele>92.538</ele>
<time>2017-11-18T09:58:17.155Z</time>
</trkpt>
<trkpt lat="22.2541099" lon="114.2541547">
<ele>92.698</ele>
<time>2017-11-18T09:58:24.252Z</time>
</trkpt>
<trkpt lat="22.2542069" lon="114.2541390">
<ele>93.675</ele>
<time>2017-11-18T09:58:31.255Z</time>
</trkpt>
<trkpt lat="22.2543020" lon="114.2541345">
<ele>95.087</ele>
<time>2017-11-18T09:58:38.450Z</time>
</trkpt>
<trkpt lat="22.2543963" lon="114.2541310">
<ele>96.354</ele>
<time>2017-11-18T09:58:46.181Z</time>
</trkpt>
<trkpt lat="22.2544906" lon="114.2541208">
<ele>97.385</ele>
<time>2017-11-18T09:58:54.002Z</time>
</trkpt>
<trkpt lat="22.2544906" lon="114.2541208">
<ele>98.191</ele>
<time>2017-11-18T09:58:54.002Z</time>
</trkpt>
<trkpt lat="22.2544906" lon="114.2541208">
<ele>98.580</ele>
<time>2017-11-18T09:58:55.096Z</time>
</trkpt>
<trkpt lat="22.2545878" lon="114.2541178">
<ele>98.253</ele>
<time>2017-11-18T09:59:09.933Z</time>
</trkpt>
<trkpt lat="22.2546769" lon="114.2541319">
<ele>98.393</ele>
<time>2017-11-18T09:59:19.264Z</time>
</trkpt>
<trkpt lat="22.2547681" lon="114.2541570">
<ele>99.311</ele>
<time>2017-11-18T09:59:29.203Z</time>
</trkpt>
<trkpt lat="22.2548532" lon="114.2541939">
<ele>100.748</ele>
<time>2017-11-18T09:59:39.201Z</time>
</trkpt>
<trkpt lat="22.2549491" lon="114.2542053">
<ele>102.204</ele>
<time>2017-11-18T09:59:49.386Z</time>
</trkpt>
<trkpt lat="22.2550406" lon="114.2542294">
<ele>103.544</ele>
<time>2017-11-18T09:59:58.329Z</time>
</trkpt>
<trkpt lat="22.2551267" lon="114.2542618">
<ele>104.767</ele>
<time>2017-11-18T10:00:06.990Z</time>
</trkpt>
<trkpt lat="22.2552167" lon="114.2543007">
<ele>105.834</ele>
<time>2017-11-18T10:00:16.714Z</time>
</trkpt>
<trkpt lat="22.2553088" lon="114.2543271">
<ele>106.791</ele>
<time>2017-11-18T10:00:27.000Z</time>
</trkpt>
<trkpt lat="22.2553088" lon="114.2543271">
<ele>107.612</ele>
<time>2017-11-18T10:00:33.000Z</time>
</trkpt>
<trkpt lat="22.2553088" lon="114.2543271">
<ele>108.022</ele>
<time>2017-11-18T10:00:33.100Z</time>
</trkpt>
<trkpt lat="22.2554153" lon="114.2543683">
<ele>107.939</ele>
<time>2017-11-18T10:00:48.144Z</time>
</trkpt>
<trkpt lat="22.2555060" lon="114.2543587">
<ele>108.078</ele>
<time>2017-11-18T10:00:56.475Z</time>
</trkpt>
<trkpt lat="22.2556014" lon="114.2543158">
<ele>109.063</ele>
<time>2017-11-18T10:01:05.033Z</time>
</trkpt>
<trkpt lat="22.2556929" lon="114.2542720">
<ele>110.502</ele>
<time>2017-11-18T10:01:12.478Z</time>
</trkpt>
<trkpt lat="22.2557713" lon="114.2542021">
<ele>111.723</ele>
<time>2017-11-18T10:01:20.056Z</time>
</trkpt>
<trkpt lat="22.2558477" lon="114.2541446">
<ele>112.663</ele>
<time>2017-11-18T10:01:27.504Z</time>
</trkpt>
<trkpt lat="22.2559241" lon="114.2540922">
<ele>113.540</ele>
<time>2017-11-18T10:01:34.998Z</time>
</trkpt>
<trkpt lat="22.2559241" lon="114.2540922">
<ele>114.332</ele>
<time>2017-11-18T10:01:44.998Z</time>
</trkpt>
<trkpt lat="22.2559241" lon="114.2540922">
<ele>114.716</ele>
<time>2017-11-18T10:01:45.131Z</time>
</trkpt>
<trkpt lat="22.2559974" lon="114.2539144">
<ele>114.631</ele>
<time>2017-11-18T10:02:09.882Z</time>
</trkpt>
<trkpt lat="22.2560212" lon="114.2538132">
<ele>114.859</ele>
<time>2017-11-18T10:02:18.811Z</time>
</trkpt>
<trkpt lat="22.2560251" lon="114.2537085">
<ele>116.012</ele>
<time>2017-11-18T10:02:26.724Z</time>
</trkpt>
<trkpt lat="22.2560295" lon="114.2536037">
<ele>117.531</ele>
<time>2017-11-18T10:02:34.925Z</time>
</trkpt>
<trkpt lat="22.2560433" lon="114.2535038">
<ele>118.814</ele>
<time>2017-11-18T10:02:43.266Z</time>
</trkpt>
<trkpt lat="22.2560574" lon="114.2534073">
<ele>119.930</ele>
<time>2017-11-18T10:02:51.065Z</time>
</trkpt>
<trkpt lat="22.2560692" lon="114.2532957">
<ele>120.958</ele>
<time>2017-11-18T10:02:59.420Z</time>
</trkpt>
<trkpt lat="22.2560713" lon="114.2531922">
<ele>121.942</ele>
<time>2017-11-18T10:03:07.010Z</time>
</trkpt>
<trkpt lat="22.2561007" lon="114.2530903">
<ele>122.917</ele>
<time>2017-11-18T10:03:14.818Z</time>
</trkpt>
<trkpt lat="22.2561023" lon="114.2529869">
<ele>123.894</ele>
<time>2017-11-18T10:03:22.299Z</time>
</trkpt>
<trkpt lat="22.2561096" lon="114.2528870">
<ele>124.848</ele>
<time>2017-11-18T10:03:29.657Z</time>
</trkpt>
<trkpt lat="22.2561325" lon="114.2527861">
<ele>125.726</ele>
<time>2017-11-18T10:03:37.505Z</time>
</trkpt>
<trkpt lat="22.2561613" lon="114.2526940">
<ele>126.657</ele>
<time>2017-11-18T10:03:44.675Z</time>
</trkpt>
<trkpt lat="22.2561893" lon="114.2525959">
<ele>127.676</ele>
<time>2017-11-18T10:03:52.200Z</time>
</trkpt>
<trkpt lat="22.2562454" lon="114.2525186">
<ele>128.585</ele>
<time>2017-11-18T10:03:59.995Z</time>
</trkpt>
<trkpt lat="22.2562454" lon="114.2525186">
<ele>129.229</ele>
<time>2017-11-18T10:04:03.995Z</time>
</trkpt>
<trkpt lat="22.2562454" lon="114.2525186">
<ele>129.507</ele>
<time>2017-11-18T10:05:08.599Z</time>
</trkpt>
<trkpt lat="22.2562654" lon="114.2524149">
<ele>129.214</ele>
<time>2017-11-18T10:05:35.972Z</time>
</trkpt>
<trkpt lat="22.2563200" lon="114.2523229">
<ele>129.333</ele>
<time>2017-11-18T10:05:43.571Z</time>
</trkpt>
<trkpt lat="22.2563757" lon="114.2522457">
<ele>130.049</ele>
<time>2017-11-18T10:05:48.911Z</time>
</trkpt>
<trkpt lat="22.2564577" lon="114.2521875">
<ele>131.134</ele>
<time>2017-11-18T10:05:54.593Z</time>
</trkpt>
<trkpt lat="22.2565477" lon="114.2521369">
<ele>132.201</ele>
<time>2017-11-18T10:06:00.707Z</time>
</trkpt>
<trkpt lat="22.2566393" lon="114.2520986">
<ele>133.154</ele>
<time>2017-11-18T10:06:06.898Z</time>
</trkpt>
<trkpt lat="22.2567332" lon="114.2521130">
<ele>133.986</ele>
<time>2017-11-18T10:06:12.495Z</time>
</trkpt>
<trkpt lat="22.2568187" lon="114.2521615">
<ele>134.742</ele>
<time>2017-11-18T10:06:17.999Z</time>
</trkpt>
<trkpt lat="22.2568187" lon="114.2521615">
<ele>134.086</ele>
<time>2017-11-18T10:06:27.998Z</time>
</trkpt>
<trkpt lat="22.2568187" lon="114.2521615">
<ele>134.028</ele>
<time>2017-11-18T10:06:28.098Z</time>
</trkpt>
<trkpt lat="22.2569649" lon="114.2522660">
<ele>134.097</ele>
<time>2017-11-18T10:06:42.033Z</time>
</trkpt>
<trkpt lat="22.2570597" lon="114.2522826">
<ele>133.498</ele>
<time>2017-11-18T10:06:46.734Z</time>
</trkpt>
<trkpt lat="22.2571515" lon="114.2522710">
<ele>131.686</ele>
<time>2017-11-18T10:06:50.260Z</time>
</trkpt>
<trkpt lat="22.2572449" lon="114.2522579">
<ele>127.931</ele>
<time>2017-11-18T10:06:53.234Z</time>
</trkpt>
<trkpt lat="22.2573344" lon="114.2522305">
<ele>126.783</ele>
<time>2017-11-18T10:06:55.896Z</time>
</trkpt>
<trkpt lat="22.2574349" lon="114.2521950">
<ele>125.673</ele>
<time>2017-11-18T10:06:58.632Z</time>
</trkpt>
<trkpt lat="22.2575428" lon="114.2521633">
<ele>124.476</ele>
<time>2017-11-18T10:07:01.446Z</time>
</trkpt>
<trkpt lat="22.2576428" lon="114.2521290">
<ele>123.274</ele>
<time>2017-11-18T10:07:04.134Z</time>
</trkpt>
<trkpt lat="22.2577343" lon="114.2520665">
<ele>122.170</ele>
<time>2017-11-18T10:07:06.998Z</time>
</trkpt>
<trkpt lat="22.2577343" lon="114.2520665">
<ele>121.199</ele>
<time>2017-11-18T10:07:09.998Z</time>
</trkpt>
<trkpt lat="22.2577343" lon="114.2520665">
<ele>120.629</ele>
<time>2017-11-18T10:07:10.098Z</time>
</trkpt>
<trkpt lat="22.2577714" lon="114.2519150">
<ele>120.619</ele>
<time>2017-11-18T10:07:20.461Z</time>
</trkpt>
<trkpt lat="22.2578795" lon="114.2519096">
<ele>120.250</ele>
<time>2017-11-18T10:07:25.033Z</time>
</trkpt>
<trkpt lat="22.2579962" lon="114.2519131">
<ele>118.716</ele>
<time>2017-11-18T10:07:28.945Z</time>
</trkpt>
<trkpt lat="22.2581038" lon="114.2519237">
<ele>116.715</ele>
<time>2017-11-18T10:07:32.114Z</time>
</trkpt>
<trkpt lat="22.2581971" lon="114.2519337">
<ele>115.201</ele>
<time>2017-11-18T10:07:34.768Z</time>
</trkpt>
<trkpt lat="22.2583038" lon="114.2519847">
<ele>114.257</ele>
<time>2017-11-18T10:07:38.210Z</time>
</trkpt>
<trkpt lat="22.2583890" lon="114.2520519">
<ele>113.655</ele>
<time>2017-11-18T10:07:41.459Z</time>
</trkpt>
<trkpt lat="22.2584608" lon="114.2521526">
<ele>113.157</ele>
<time>2017-11-18T10:07:45.128Z</time>
</trkpt>
<trkpt lat="22.2585436" lon="114.2522467">
<ele>112.587</ele>
<time>2017-11-18T10:07:48.887Z</time>
</trkpt>
<trkpt lat="22.2586116" lon="114.2523217">
<ele>111.877</ele>
<time>2017-11-18T10:07:52.023Z</time>
</trkpt>
<trkpt lat="22.2586911" lon="114.2523993">
<ele>111.089</ele>
<time>2017-11-18T10:07:55.699Z</time>
</trkpt>
<trkpt lat="22.2587391" lon="114.2525046">
<ele>110.250</ele>
<time>2017-11-18T10:07:59.629Z</time>
</trkpt>
<trkpt lat="22.2587616" lon="114.2526196">
<ele>109.354</ele>
<time>2017-11-18T10:08:03.552Z</time>
</trkpt>
<trkpt lat="22.2588077" lon="114.2527089">
<ele>108.510</ele>
<time>2017-11-18T10:08:06.781Z</time>
</trkpt>
<trkpt lat="22.2588657" lon="114.2527860">
<ele>107.700</ele>
<time>2017-11-18T10:08:09.862Z</time>
</trkpt>
<trkpt lat="22.2589287" lon="114.2528890">
<ele>106.921</ele>
<time>2017-11-18T10:08:13.592Z</time>
</trkpt>
<trkpt lat="22.2589813" lon="114.2529725">
<ele>106.272</ele>
<time>2017-11-18T10:08:16.568Z</time>
</trkpt>
<trkpt lat="22.2590528" lon="114.2530395">
<ele>105.782</ele>
<time>2017-11-18T10:08:19.606Z</time>
</trkpt>
<trkpt lat="22.2591320" lon="114.2530986">
<ele>105.489</ele>
<time>2017-11-18T10:08:22.875Z</time>
</trkpt>
<trkpt lat="22.2591834" lon="114.2531864">
<ele>105.224</ele>
<time>2017-11-18T10:08:26.831Z</time>
</trkpt>
<trkpt lat="22.2591300" lon="114.2532690">
<ele>104.271</ele>
<time>2017-11-18T10:08:32.003Z</time>
</trkpt>
<trkpt lat="22.2591772" lon="114.2533555">
<ele>103.802</ele>
<time>2017-11-18T10:08:38.384Z</time>
</trkpt>
<trkpt lat="22.2592614" lon="114.2534138">
<ele>103.361</ele>
<time>2017-11-18T10:08:45.995Z</time>
</trkpt>
<trkpt lat="22.2593406" lon="114.2534778">
<ele>102.861</ele>
<time>2017-11-18T10:08:53.117Z</time>
</trkpt>
<trkpt lat="22.2593997" lon="114.2535592">
<ele>102.202</ele>
<time>2017-11-18T10:08:59.541Z</time>
</trkpt>
<trkpt lat="22.2594351" lon="114.2536552">
<ele>101.377</ele>
<time>2017-11-18T10:09:05.961Z</time>
</trkpt>
<trkpt lat="22.2595250" lon="114.2537078">
<ele>100.433</ele>
<time>2017-11-18T10:09:12.983Z</time>
</trkpt>
<trkpt lat="22.2595968" lon="114.2537738">
<ele>99.514</ele>
<time>2017-11-18T10:09:19.557Z</time>
</trkpt>
<trkpt lat="22.2596855" lon="114.2537933">
<ele>98.643</ele>
<time>2017-11-18T10:09:25.893Z</time>
</trkpt>
<trkpt lat="22.2597802" lon="114.2537970">
<ele>97.651</ele>
<time>2017-11-18T10:09:32.927Z</time>
</trkpt>
<trkpt lat="22.2598680" lon="114.2538438">
<ele>96.599</ele>
<time>2017-11-18T10:09:40.997Z</time>
</trkpt>
<trkpt lat="22.2598680" lon="114.2538438">
<ele>95.815</ele>
<time>2017-11-18T10:09:47.997Z</time>
</trkpt>
<trkpt lat="22.2598680" lon="114.2538438">
<ele>95.480</ele>
<time>2017-11-18T10:10:00.456Z</time>
</trkpt>
<trkpt lat="22.2599694" lon="114.2538380">
<ele>95.604</ele>
<time>2017-11-18T10:10:17.104Z</time>
</trkpt>
<trkpt lat="22.2600354" lon="114.2539175">
<ele>95.374</ele>
<time>2017-11-18T10:10:29.945Z</time>
</trkpt>
<trkpt lat="22.2601046" lon="114.2539933">
<ele>94.577</ele>
<time>2017-11-18T10:10:38.641Z</time>
</trkpt>
<trkpt lat="22.2601973" lon="114.2540500">
<ele>93.604</ele>
<time>2017-11-18T10:10:44.294Z</time>
</trkpt>
<trkpt lat="22.2602986" lon="114.2540801">
<ele>92.861</ele>
<time>2017-11-18T10:10:48.700Z</time>
</trkpt>
<trkpt lat="22.2604188" lon="114.2540936">
<ele>92.189</ele>
<time>2017-11-18T10:10:53.207Z</time>
</trkpt>
<trkpt lat="22.2605197" lon="114.2540964">
<ele>91.271</ele>
<time>2017-11-18T10:10:56.707Z</time>
</trkpt>
<trkpt lat="22.2606146" lon="114.2540856">
<ele>90.067</ele>
<time>2017-11-18T10:10:59.717Z</time>
</trkpt>
<trkpt lat="22.2607365" lon="114.2540594">
<ele>88.810</ele>
<time>2017-11-18T10:11:03.292Z</time>
</trkpt>
<trkpt lat="22.2608501" lon="114.2540444">
<ele>87.550</ele>
<time>2017-11-18T10:11:06.823Z</time>
</trkpt>
<trkpt lat="22.2609405" lon="114.2540750">
<ele>86.304</ele>
<time>2017-11-18T10:11:10.999Z</time>
</trkpt>
<trkpt lat="22.2610192" lon="114.2540259">
<ele>84.680</ele>
<time>2017-11-18T10:11:15.008Z</time>
</trkpt>
<trkpt lat="22.2611091" lon="114.2539728">
<ele>83.977</ele>
<time>2017-11-18T10:11:23.633Z</time>
</trkpt>
<trkpt lat="22.2611976" lon="114.2539404">
<ele>82.929</ele>
<time>2017-11-18T10:11:31.763Z</time>
</trkpt>
<trkpt lat="22.2612908" lon="114.2539244">
<ele>81.666</ele>
<time>2017-11-18T10:11:39.375Z</time>
</trkpt>
<trkpt lat="22.2613809" lon="114.2538886">
<ele>80.275</ele>
<time>2017-11-18T10:11:47.099Z</time>
</trkpt>
<trkpt lat="22.2614761" lon="114.2538725">
<ele>78.803</ele>
<time>2017-11-18T10:11:54.008Z</time>
</trkpt>
<trkpt lat="22.2615695" lon="114.2539127">
<ele>77.410</ele>
<time>2017-11-18T10:12:01.087Z</time>
</trkpt>
<trkpt lat="22.2616578" lon="114.2539590">
<ele>76.183</ele>
<time>2017-11-18T10:12:07.995Z</time>
</trkpt>
<trkpt lat="22.2616578" lon="114.2539590">
<ele>75.229</ele>
<time>2017-11-18T10:12:10.995Z</time>
</trkpt>
<trkpt lat="22.2616578" lon="114.2539590">
<ele>74.774</ele>
<time>2017-11-18T10:14:07.815Z</time>
</trkpt>
<trkpt lat="22.2617361" lon="114.2540159">
<ele>74.792</ele>
<time>2017-11-18T10:14:21.439Z</time>
</trkpt>
<trkpt lat="22.2618346" lon="114.2540336">
<ele>74.640</ele>
<time>2017-11-18T10:14:26.575Z</time>
</trkpt>
<trkpt lat="22.2619509" lon="114.2540335">
<ele>73.717</ele>
<time>2017-11-18T10:14:31.158Z</time>
</trkpt>
<trkpt lat="22.2620572" lon="114.2540382">
<ele>72.272</ele>
<time>2017-11-18T10:14:36.191Z</time>
</trkpt>
<trkpt lat="22.2621588" lon="114.2540334">
<ele>70.157</ele>
<time>2017-11-18T10:14:40.999Z</time>
</trkpt>
<trkpt lat="22.2621588" lon="114.2540334">
<ele>69.671</ele>
<time>2017-11-18T10:14:47.999Z</time>
</trkpt>
<trkpt lat="22.2621588" lon="114.2540334">
<ele>69.548</ele>
<time>2017-11-18T10:15:25.386Z</time>
</trkpt>
<trkpt lat="22.2623248" lon="114.2539858">
<ele>69.603</ele>
<time>2017-11-18T10:15:36.998Z</time>
</trkpt>
<trkpt lat="22.2623248" lon="114.2539858">
<ele>69.603</ele>
<time>2017-11-18T10:15:39.998Z</time>
</trkpt>
<trkpt lat="22.2623248" lon="114.2539858">
<ele>69.569</ele>
<time>2017-11-18T10:15:42.178Z</time>
</trkpt>
<trkpt lat="22.2625108" lon="114.2539667">
<ele>69.535</ele>
<time>2017-11-18T10:15:54.998Z</time>
</trkpt>
<trkpt lat="22.2625108" lon="114.2539667">
<ele>69.509</ele>
<time>2017-11-18T10:16:05.997Z</time>
</trkpt>
<trkpt lat="22.2625108" lon="114.2539667">
<ele>69.479</ele>
<time>2017-11-18T10:16:24.833Z</time>
</trkpt>
<trkpt lat="22.2627068" lon="114.2540021">
<ele>69.447</ele>
<time>2017-11-18T10:16:53.219Z</time>
</trkpt>
<trkpt lat="22.2628058" lon="114.2540044">
<ele>68.466</ele>
<time>2017-11-18T10:17:01.566Z</time>
</trkpt>
<trkpt lat="22.2629071" lon="114.2539966">
<ele>65.719</ele>
<time>2017-11-18T10:17:09.428Z</time>
</trkpt>
<trkpt lat="22.2630042" lon="114.2539655">
<ele>62.382</ele>
<time>2017-11-18T10:17:17.035Z</time>
</trkpt>
<trkpt lat="22.2630910" lon="114.2539232">
<ele>59.934</ele>
<time>2017-11-18T10:17:23.965Z</time>
</trkpt>
<trkpt lat="22.2631727" lon="114.2538674">
<ele>58.355</ele>
<time>2017-11-18T10:17:32.058Z</time>
</trkpt>
<trkpt lat="22.2632409" lon="114.2538007">
<ele>57.214</ele>
<time>2017-11-18T10:17:40.224Z</time>
</trkpt>
<trkpt lat="22.2633206" lon="114.2537386">
<ele>56.087</ele>
<time>2017-11-18T10:17:47.786Z</time>
</trkpt>
<trkpt lat="22.2634201" lon="114.2537160">
<ele>54.703</ele>
<time>2017-11-18T10:17:54.436Z</time>
</trkpt>
<trkpt lat="22.2635018" lon="114.2536628">
<ele>53.237</ele>
<time>2017-11-18T10:18:00.622Z</time>
</trkpt>
<trkpt lat="22.2635643" lon="114.2535731">
<ele>52.001</ele>
<time>2017-11-18T10:18:07.062Z</time>
</trkpt>
<trkpt lat="22.2636263" lon="114.2534930">
<ele>50.983</ele>
<time>2017-11-18T10:18:12.890Z</time>
</trkpt>
<trkpt lat="22.2637115" lon="114.2534538">
<ele>50.058</ele>
<time>2017-11-18T10:18:18.774Z</time>
</trkpt>
<trkpt lat="22.2638071" lon="114.2534294">
<ele>49.137</ele>
<time>2017-11-18T10:18:25.995Z</time>
</trkpt>
<trkpt lat="22.2638071" lon="114.2534294">
<ele>48.268</ele>
<time>2017-11-18T10:18:34.994Z</time>
</trkpt>
<trkpt lat="22.2638071" lon="114.2534294">
<ele>47.771</ele>
<time>2017-11-18T10:19:29.192Z</time>
</trkpt>
<trkpt lat="22.2639452" lon="114.2533902">
<ele>47.787</ele>
<time>2017-11-18T10:19:50.255Z</time>
</trkpt>
<trkpt lat="22.2640382" lon="114.2533535">
<ele>47.428</ele>
<time>2017-11-18T10:19:57.903Z</time>
</trkpt>
<trkpt lat="22.2641395" lon="114.2533162">
<ele>45.804</ele>
<time>2017-11-18T10:20:03.590Z</time>
</trkpt>
<trkpt lat="22.2642278" lon="114.2532713">
<ele>43.383</ele>
<time>2017-11-18T10:20:08.730Z</time>
</trkpt>
<trkpt lat="22.2643068" lon="114.2532051">
<ele>40.046</ele>
<time>2017-11-18T10:20:14.507Z</time>
</trkpt>
<trkpt lat="22.2643598" lon="114.2531241">
<ele>39.220</ele>
<time>2017-11-18T10:20:20.808Z</time>
</trkpt>
<trkpt lat="22.2644422" lon="114.2530642">
<ele>38.674</ele>
<time>2017-11-18T10:20:28.446Z</time>
</trkpt>
<trkpt lat="22.2645232" lon="114.2530046">
<ele>37.197</ele>
<time>2017-11-18T10:20:35.870Z</time>
</trkpt>
<trkpt lat="22.2646061" lon="114.2529488">
<ele>35.008</ele>
<time>2017-11-18T10:20:42.568Z</time>
</trkpt>
<trkpt lat="22.2646966" lon="114.2529247">
<ele>32.813</ele>
<time>2017-11-18T10:20:48.900Z</time>
</trkpt>
<trkpt lat="22.2647834" lon="114.2528931">
<ele>31.056</ele>
<time>2017-11-18T10:20:54.912Z</time>
</trkpt>
<trkpt lat="22.2648089" lon="114.2527783">
<ele>28.945</ele>
<time>2017-11-18T10:21:02.179Z</time>
</trkpt>
<trkpt lat="22.2648509" lon="114.2526735">
<ele>27.684</ele>
<time>2017-11-18T10:21:08.054Z</time>
</trkpt>
<trkpt lat="22.2648404" lon="114.2525746">
<ele>25.479</ele>
<time>2017-11-18T10:21:12.535Z</time>
</trkpt>
<trkpt lat="22.2648516" lon="114.2524656">
<ele>20.649</ele>
<time>2017-11-18T10:21:17.905Z</time>
</trkpt>
<trkpt lat="22.2648520" lon="114.2523655">
<ele>18.431</ele>
<time>2017-11-18T10:21:23.194Z</time>
</trkpt>
<trkpt lat="22.2649566" lon="114.2523855">
<ele>15.728</ele>
<time>2017-11-18T10:21:29.997Z</time>
</trkpt>
<trkpt lat="22.2650169" lon="114.2522887">
<ele>12.882</ele>
<time>2017-11-18T10:21:35.997Z</time>
</trkpt>
</trkseg>
</trk>
<extensions>
<fpdata xmlns="http://www.motionx.com/GPX-Extensions/1/1" sfv="10" origin="MotionXGPSFull 24.4 Build 5112 R64">
<bin enc="base64">
RgIAAAACAAAAdEVeh/uD1kEBAAAALlOqbQKE1kHNzACdsV6wQH4CAAD5OwcA3FK6hPBv
FEBVhtwNtMMpQAAAAAAXAAAA5b6M5bGxIOWkp+adsembu+WgseWxgAAWAAAATm92IDE4
LCAyMDE3ICA0OjIzIHBtAAAAAAByU6ptAoTWQZiHynUChNZBkcZPABPW4ReASFxALAAA
AAIAAAA/HQivBZBcQM0WYFJcRDZA3FK6hPBvFEAAAAAAAAA5QAAAAAAAABhAAAAAAADA
eEAAAAAAAAAAAAAAAAB7FK5H4YZxQFBJn7Flm0xAAQAAAIwSKhDYM7m/AQAAAAEAAAAJ
KqQkDubEPzpAC96nJcG/AQAAAAEAAAAJAAAAbLWsnKbYT0AAAAAAAAAAAAAAAAAAAAAA
AAAAAAAAAAAAAAAAAAAAAAAAAAAAAAAAVSAAANPV/2sChNZBAAAAAAAAAAAAAAAAAAAA
AP8lRLwCAAAAAAAAAAAAAAABAAAAJwAAADI0LjIgQnVpbGQgNTA2M1I2NCwgTVhBRSA4
LjEgYi4gNjI2UjY0AAAAAAC5ZwAAAQAAAAFWAAAAHe4PWrUJEFoEkUdeh/uD1kGRR16H
+4PWQQAAAAAAWiI/AAAAAAKRRV6H+4PWQYKnh+77g9ZBAABAfFjKeUAAAAAAArqI0w/8
g9ZBnkaIE/yD1kEAAED1h7d6QAAAAAACCvgJF/yD1kFO7ok//IPWQQAAIMPCa4JAAAAA
AAKRKMtC/IPWQZAyB0n8g9ZBAAAAA0Qzg0AAAAAAAnRhy0v8g9ZBpu0TTPyD1kEAAECJ
VTyDQAAAAAACxy5JTPyD1kFUcsdM/IPWQQAA4PodTINAAAAAAAKsA8xT/IPWQb1wSVj8
g9ZBAAAAncvbg0AAAAAAAj571lv8g9ZBFVdTXvyD1kEAAOAXZyuEQAAAAAAC5o/JYPyD
1kGCrspk/IPWQQAAYOuKq4RAAAAAAALLaKZ7/IPWQfQ0x4b8g9ZBAACAcKQPhkAAAAAA
AoKnjIz8g9ZBaD/HjfyD1kEAAEBt9zaGQAAAAAACoFSKkfyD1kEtzkqb/IPWQQAA4J4G
b4dAAAAAAAKs5Amf/IPWQYHQSKD8g9ZBAACAGeSWh0AAAAAAAnJMCaL8g9ZBlsxHy/yD
1kEAAAAetL6MQAAAAAACM2zK0PyD1kHek8fS/IPWQQAAYBNZ/oxAAAAAAAIoZkfb/IPW
QbuZyvn8g9ZBAADgwl9nkEAAAAAAAo9tiP/8g9ZBELMHDv2D1kEAAPAaVE+RQAAAAAAC
q14JEf2D1kHRdgYY/YPWQQAAUJ0lv5FAAAAAAAKSJskj/YPWQXwqRib9g9ZBAADw2/Xm
kUAAAAAAAiKNzin9g9ZBPlnHRf2D1kEAALCdgqaTQAAAAAACIoqNS/2D1kGPU0lR/YPW
QQAAgDQ/ApRAAAAAAAKGOUpU/YPWQQMjyFb9g9ZBAABQzB0qlEAAAAAAAlVqU1z9g9ZB
YHeGYv2D1kEAAACdTo2UQAAAAAACJ78JZf2D1kEUk8dn/YPWQQAA0NsruZRAAAAAAALw
GIls/YPWQVp+x4f9g9ZBAABwMhJtlkAAAAAAAgjjLp39g9ZBKCsFpv2D1kEAAHC0dvqW
QAAAAAACGcnS2/2D1kFmEwff/YPWQQAAQFm7LZdAAAAAAAKgcf/r/YPWQRRBiAX+g9ZB
AACAUEjGmEAAAAAAAkTgyw3+g9ZBtrlGFf6D1kEAAKDn9T2ZQAAAAAACKUHLHf6D1kFf
Jck4/oPWQQAAACvU7ZpAAAAAAAKmKpFD/oPWQW1VR0f+g9ZBAABw1zYpm0AAAAAAAkZd
iEr+g9ZBkDCHS/6D1kEAABAMJDmbQAAAAAACqg7LWP6D1kHylIha/oPWQQAAkHD8VJtA
AAAAAAJp/k9l/oPWQYBgxmf+g9ZBAAAAkmJ8m0AAAAAAAnl3inT+g9ZBIsPVd/6D1kEA
AJBMF7GbQAAAAAACFY0Jff6D1kGEfueD/oPWQQAAgGP2HpxAAAAAAALAso2J/oPWQc+g
RIv+g9ZBAABwRGU6nEAAAAAAAg3Dj6X+g9ZB/kRhqf6D1kEAAIBjfXecQAAAAAACKXgx
6/6D1kHNkAf7/oPWQQAAwO3edJ1AAAAAAALXv2IA/4PWQdsVnAT/g9ZBAAAATnS4nUAA
AAAAApDB1hj/g9ZB/0BIKP+D1kEAAPBEjK+eQAAAAAACdTxILv+D1kE+tYY1/4PWQQAA
gNFzI59AAAAAAALRBQo5/4PWQZrRhk7/g9ZBAAAIR6A9oEAAAAAAAr1TyFf/g9ZBfxPG
ZP+D1kEAABhFjqWgQAAAAAACICgHaP+D1kHYm+aB/4PWQQAA2OKJdKFAAAAAAAIknguH
/4PWQTXvBpL/g9ZBAABga2TMoUAAAAAAAlWkSJv/g9ZBzvzHqP+D1kEAACgvXziiQAAA
AAACICPKsP+D1kHCMYjH/4PWQQAAOKRP7qJAAAAAAALLn6PM/4PWQXR6Rc3/g9ZBAACA
eV7zokAAAAAAAqG+Rs3/g9ZBe2qEzf+D1kEAAFDYS/WiQAAAAAAC9wNK1f+D1kFRTEfa
/4PWQQAAIBs2HaNAAAAAAAKIvofh/4PWQXIZyPP/g9ZBAABw8jivo0AAAAAAAuOMR/b/
g9ZBndiG+/+D1kEAAEBQM9mjQAAAAAAC3JzH/P+D1kGAvAMGAITWQQAAYE0UI6RAAAAA
AAIBMIcKAITWQbJphxIAhNZBAADoGhZjpEAAAAAAAjlgiBcAhNZB1SWGKQCE1kEAAMhH
BPOkQAAAAAACLQeIMgCE1kHNV0U4AITWQQAAyMzuIKVAAAAAAAId6Ig/AITWQWg8R0sA
hNZBAAAgb+F+pUAAAAAAAoAPCk4AhNZBcozLTwCE1kEAALBW7YylQAAAAAACotFHUgCE
1kEE4U1UAITWQQAAwNEdnaVAAAAAAAKLNk1kAITWQSmTBmcAhNZBAACwtuiypUAAAAAA
AjdTB28AhNZBEkxLeACE1kEAAIh9CP2lQAAAAAADWRhQfQCE1kFZGFB9AITWQQAAiH0I
/aVAAAAAAAQhroOBAITWQSGug4EAhNZBAACIfQj9pUAAAAAAAmPQhIEAhNZB3BLJhgCE
1kGamekqBDamQAAAAAACrvTXjgCE1kEeiMaRAITWQZqZacZ4TaZAAAAAAAKISMubAITW
QdBlxqsAhNZBmpmpsFHNpkAAAAAAAh0AiK4AhNZBH0tGtgCE1kGambkIRAunQAAAAAAC
C9SKuQCE1kFnYUXgAITWQZqZmXMYQahAAAAAAAJYGUfjAITWQaxvFeYAhNZBmpk5JotX
qEAAAAAAApLmRukAhNZBYr1L6gCE1kGambncsV+oQAAAAAACd4MN7wCE1kEIV4oFAYTW
QZqZQXmYE6lAAAAAAALKwNwKAYTWQY+q0RcBhNZBmplpxz97qUAAAAAAAqiMhhkBhNZB
REyKMAGE1kGamUnEXTOqQAAAAAAC/FbJMgGE1kFlUcZEAYTWQZqZkZdFw6pAAAAAAAJo
IepGAYTWQZC7RGUBhNZBmpnRaBq2q0AAAAAAAijUznoBhNZBCMpDiQGE1kGamdEXwims
QAAAAAACkNyIiwGE1kG4QMeTAYTWQZqZETm1a6xAAAAAAAJa1EWVAYTWQZRKSbsBhNZB
mpnh6tCbrUAAAAAAAnmxjL8BhNZB6DEG3wGE1kGamVnunJeuQAAAAAAC3GmH/gGE1kFc
VkoGAoTWQZqZWVK01a5AAAAAAAJ6NE8SAoTWQepcRhMChNZBmpnZlW3drkAAAAAAAsrj
4BYChNZBe77RGQKE1kGamWFr9PSuQAAAAAAC98pLIwKE1kFqaQY/AoTWQZqZ+V7J0q9A
AAAAAAHVWgpQAoTWQTaWXW0ChNZBzcwAnbFesEAAAAAAAAAAAA==
</bin>
</fpdata>
</extensions>
</gpx>
